<?xml version="1.0" encoding="UTF-8" standalone="no" ?>
<gpx xmlns="http://www.topografix.com/GPX/1/1" xmlns:xsi="http://www.w3.org/2001/XMLSchema-instance" xsi:schemaLocation="http://www.topografix.com/GPX/1/1 http://www.topografix.com/GPX/1/1/gpx.xsd" version="1.1" creator="VisuGPX - https://www.visugpx.com">
  <metadata>
    <name>Uchaud</name>
    <desc><![CDATA[VTT Gard Uchaud 28kms]]></desc>
  </metadata>
  <wpt lat="43.75638" lon="4.26625">
    <ele>22</ele>
    <name><![CDATA[DEPART]]></name>
    <desc><![CDATA[DEPART]]></desc>
    <cmt><![CDATA[DEPART]]></cmt>
  </wpt>
  <trk>
    <name><![CDATA[(c) UtagawaVTT.com]]></name>
    <trkseg>
      <trkpt lat="43.75638" lon="4.26625">
        <ele>22.608</ele>
        <time>2009-12-13T07:58:43Z</time>
      </trkpt>
      <trkpt lat="43.75639" lon="4.26579">
        <ele>22.823</ele>
        <time>2009-12-13T07:58:59Z</time>
      </trkpt>
      <trkpt lat="43.75633" lon="4.2655">
        <ele>22.73</ele>
        <time>2009-12-13T07:59:08Z</time>
      </trkpt>
      <trkpt lat="43.75642" lon="4.26537">
        <ele>23.152</ele>
        <time>2009-12-13T07:59:13Z</time>
      </trkpt>
      <trkpt lat="43.7564" lon="4.26514">
        <ele>23.187</ele>
        <time>2009-12-13T07:59:19Z</time>
      </trkpt>
      <trkpt lat="43.75649" lon="4.26472">
        <ele>23.266</ele>
        <time>2009-12-13T07:59:30Z</time>
      </trkpt>
      <trkpt lat="43.75659" lon="4.26463">
        <ele>23.039</ele>
        <time>2009-12-13T07:59:34Z</time>
      </trkpt>
      <trkpt lat="43.75695" lon="4.26455">
        <ele>24.022</ele>
        <time>2009-12-13T07:59:47Z</time>
      </trkpt>
      <trkpt lat="43.75722" lon="4.26435">
        <ele>25.001</ele>
        <time>2009-12-13T07:59:55Z</time>
      </trkpt>
      <trkpt lat="43.75734" lon="4.26447">
        <ele>24.89</ele>
        <time>2009-12-13T07:59:59Z</time>
      </trkpt>
      <trkpt lat="43.75774" lon="4.26516">
        <ele>26.678</ele>
        <time>2009-12-13T08:00:17Z</time>
      </trkpt>
      <trkpt lat="43.75816" lon="4.26497">
        <ele>27.538</ele>
        <time>2009-12-13T08:00:28Z</time>
      </trkpt>
      <trkpt lat="43.75828" lon="4.26486">
        <ele>28.226</ele>
        <time>2009-12-13T08:00:32Z</time>
      </trkpt>
      <trkpt lat="43.75828" lon="4.26467">
        <ele>28.366</ele>
        <time>2009-12-13T08:00:36Z</time>
      </trkpt>
      <trkpt lat="43.758" lon="4.26372">
        <ele>33.05</ele>
        <time>2009-12-13T08:00:56Z</time>
      </trkpt>
      <trkpt lat="43.75803" lon="4.26306">
        <ele>35.646</ele>
        <time>2009-12-13T08:01:09Z</time>
      </trkpt>
      <trkpt lat="43.75845" lon="4.26244">
        <ele>38.84</ele>
        <time>2009-12-13T08:01:25Z</time>
      </trkpt>
      <trkpt lat="43.75899" lon="4.26163">
        <ele>37.24</ele>
        <time>2009-12-13T08:01:45Z</time>
      </trkpt>
      <trkpt lat="43.75968" lon="4.26055">
        <ele>31.284</ele>
        <time>2009-12-13T08:02:03Z</time>
      </trkpt>
      <trkpt lat="43.75969" lon="4.26005">
        <ele>28.768</ele>
        <time>2009-12-13T08:02:09Z</time>
      </trkpt>
      <trkpt lat="43.75971" lon="4.25987">
        <ele>28.658</ele>
        <time>2009-12-13T08:02:11Z</time>
      </trkpt>
      <trkpt lat="43.76004" lon="4.25872">
        <ele>29.341</ele>
        <time>2009-12-13T08:02:28Z</time>
      </trkpt>
      <trkpt lat="43.76048" lon="4.25755">
        <ele>30.39</ele>
        <time>2009-12-13T08:02:47Z</time>
      </trkpt>
      <trkpt lat="43.76086" lon="4.25643">
        <ele>31.148</ele>
        <time>2009-12-13T08:03:05Z</time>
      </trkpt>
      <trkpt lat="43.7609" lon="4.2559">
        <ele>31.817</ele>
        <time>2009-12-13T08:03:13Z</time>
      </trkpt>
      <trkpt lat="43.76092" lon="4.25501">
        <ele>33.095</ele>
        <time>2009-12-13T08:03:28Z</time>
      </trkpt>
      <trkpt lat="43.7613" lon="4.2544">
        <ele>34.128</ele>
        <time>2009-12-13T08:03:41Z</time>
      </trkpt>
      <trkpt lat="43.76169" lon="4.25373">
        <ele>35.836</ele>
        <time>2009-12-13T08:03:57Z</time>
      </trkpt>
      <trkpt lat="43.76183" lon="4.25345">
        <ele>36.635</ele>
        <time>2009-12-13T08:04:09Z</time>
      </trkpt>
      <trkpt lat="43.76195" lon="4.25318">
        <ele>37.024</ele>
        <time>2009-12-13T08:04:23Z</time>
      </trkpt>
      <trkpt lat="43.76214" lon="4.25276">
        <ele>37.829</ele>
        <time>2009-12-13T08:04:35Z</time>
      </trkpt>
      <trkpt lat="43.76223" lon="4.25244">
        <ele>38.876</ele>
        <time>2009-12-13T08:04:47Z</time>
      </trkpt>
      <trkpt lat="43.76231" lon="4.25207">
        <ele>40.421</ele>
        <time>2009-12-13T08:04:58Z</time>
      </trkpt>
      <trkpt lat="43.76234" lon="4.2519">
        <ele>41.052</ele>
        <time>2009-12-13T08:05:10Z</time>
      </trkpt>
      <trkpt lat="43.76235" lon="4.25177">
        <ele>41.889</ele>
        <time>2009-12-13T08:05:17Z</time>
      </trkpt>
      <trkpt lat="43.76254" lon="4.2519">
        <ele>41.394</ele>
        <time>2009-12-13T08:05:27Z</time>
      </trkpt>
      <trkpt lat="43.76273" lon="4.25199">
        <ele>41.539</ele>
        <time>2009-12-13T08:05:35Z</time>
      </trkpt>
      <trkpt lat="43.76283" lon="4.25231">
        <ele>40.659</ele>
        <time>2009-12-13T08:05:43Z</time>
      </trkpt>
      <trkpt lat="43.76302" lon="4.25263">
        <ele>39.843</ele>
        <time>2009-12-13T08:05:56Z</time>
      </trkpt>
      <trkpt lat="43.76314" lon="4.25272">
        <ele>39.68</ele>
        <time>2009-12-13T08:06:00Z</time>
      </trkpt>
      <trkpt lat="43.76326" lon="4.25263">
        <ele>40.624</ele>
        <time>2009-12-13T08:06:08Z</time>
      </trkpt>
      <trkpt lat="43.76335" lon="4.25257">
        <ele>41.379</ele>
        <time>2009-12-13T08:06:16Z</time>
      </trkpt>
      <trkpt lat="43.76334" lon="4.25245">
        <ele>42.489</ele>
        <time>2009-12-13T08:06:22Z</time>
      </trkpt>
      <trkpt lat="43.76348" lon="4.25224">
        <ele>44.979</ele>
        <time>2009-12-13T08:06:33Z</time>
      </trkpt>
      <trkpt lat="43.7636" lon="4.25207">
        <ele>46.686</ele>
        <time>2009-12-13T08:06:40Z</time>
      </trkpt>
      <trkpt lat="43.76367" lon="4.25197">
        <ele>48.242</ele>
        <time>2009-12-13T08:06:44Z</time>
      </trkpt>
      <trkpt lat="43.7638" lon="4.25186">
        <ele>49.611</ele>
        <time>2009-12-13T08:06:54Z</time>
      </trkpt>
      <trkpt lat="43.76371" lon="4.2517">
        <ele>50.111</ele>
        <time>2009-12-13T08:06:59Z</time>
      </trkpt>
      <trkpt lat="43.76354" lon="4.25148">
        <ele>50.394</ele>
        <time>2009-12-13T08:07:05Z</time>
      </trkpt>
      <trkpt lat="43.76325" lon="4.25114">
        <ele>50.69</ele>
        <time>2009-12-13T08:07:15Z</time>
      </trkpt>
      <trkpt lat="43.76312" lon="4.25098">
        <ele>50.624</ele>
        <time>2009-12-13T08:07:19Z</time>
      </trkpt>
      <trkpt lat="43.763" lon="4.2508">
        <ele>51.064</ele>
        <time>2009-12-13T08:07:23Z</time>
      </trkpt>
      <trkpt lat="43.76292" lon="4.25068">
        <ele>51.372</ele>
        <time>2009-12-13T08:07:26Z</time>
      </trkpt>
      <trkpt lat="43.76278" lon="4.25041">
        <ele>51.678</ele>
        <time>2009-12-13T08:07:32Z</time>
      </trkpt>
      <trkpt lat="43.76274" lon="4.25015">
        <ele>53.256</ele>
        <time>2009-12-13T08:07:37Z</time>
      </trkpt>
      <trkpt lat="43.76297" lon="4.24977">
        <ele>56.335</ele>
        <time>2009-12-13T08:07:49Z</time>
      </trkpt>
      <trkpt lat="43.76316" lon="4.24935">
        <ele>58.458</ele>
        <time>2009-12-13T08:08:02Z</time>
      </trkpt>
      <trkpt lat="43.76315" lon="4.24898">
        <ele>59.578</ele>
        <time>2009-12-13T08:08:13Z</time>
      </trkpt>
      <trkpt lat="43.76318" lon="4.24861">
        <ele>61.622</ele>
        <time>2009-12-13T08:08:27Z</time>
      </trkpt>
      <trkpt lat="43.76338" lon="4.24822">
        <ele>63.502</ele>
        <time>2009-12-13T08:08:41Z</time>
      </trkpt>
      <trkpt lat="43.76346" lon="4.24803">
        <ele>64.623</ele>
        <time>2009-12-13T08:08:52Z</time>
      </trkpt>
      <trkpt lat="43.76349" lon="4.24765">
        <ele>67.517</ele>
        <time>2009-12-13T08:09:22Z</time>
      </trkpt>
      <trkpt lat="43.76352" lon="4.24749">
        <ele>68.61</ele>
        <time>2009-12-13T08:09:55Z</time>
      </trkpt>
      <trkpt lat="43.76348" lon="4.2473">
        <ele>69.655</ele>
        <time>2009-12-13T08:10:46Z</time>
      </trkpt>
      <trkpt lat="43.7634" lon="4.24715">
        <ele>69.498</ele>
        <time>2009-12-13T08:10:52Z</time>
      </trkpt>
      <trkpt lat="43.7632" lon="4.24698">
        <ele>69.137</ele>
        <time>2009-12-13T08:11:06Z</time>
      </trkpt>
      <trkpt lat="43.76338" lon="4.24684">
        <ele>71.691</ele>
        <time>2009-12-13T08:12:02Z</time>
      </trkpt>
      <trkpt lat="43.7635" lon="4.24681">
        <ele>73.281</ele>
        <time>2009-12-13T08:12:12Z</time>
      </trkpt>
      <trkpt lat="43.7635" lon="4.2466">
        <ele>74.736</ele>
        <time>2009-12-13T08:12:21Z</time>
      </trkpt>
      <trkpt lat="43.76351" lon="4.2464">
        <ele>76.224</ele>
        <time>2009-12-13T08:12:48Z</time>
      </trkpt>
      <trkpt lat="43.76354" lon="4.24626">
        <ele>77.111</ele>
        <time>2009-12-13T08:12:52Z</time>
      </trkpt>
      <trkpt lat="43.76349" lon="4.24598">
        <ele>79.088</ele>
        <time>2009-12-13T08:13:01Z</time>
      </trkpt>
      <trkpt lat="43.76354" lon="4.24573">
        <ele>80.253</ele>
        <time>2009-12-13T08:13:08Z</time>
      </trkpt>
      <trkpt lat="43.76366" lon="4.2456">
        <ele>80.038</ele>
        <time>2009-12-13T08:13:27Z</time>
      </trkpt>
      <trkpt lat="43.76372" lon="4.24532">
        <ele>81.068</ele>
        <time>2009-12-13T08:13:38Z</time>
      </trkpt>
      <trkpt lat="43.76387" lon="4.2452">
        <ele>79.958</ele>
        <time>2009-12-13T08:13:47Z</time>
      </trkpt>
      <trkpt lat="43.76401" lon="4.24511">
        <ele>78.82</ele>
        <time>2009-12-13T08:14:15Z</time>
      </trkpt>
      <trkpt lat="43.7641" lon="4.24504">
        <ele>78.007</ele>
        <time>2009-12-13T08:14:27Z</time>
      </trkpt>
      <trkpt lat="43.76429" lon="4.245">
        <ele>75.926</ele>
        <time>2009-12-13T08:15:10Z</time>
      </trkpt>
      <trkpt lat="43.76444" lon="4.24479">
        <ele>74.376</ele>
        <time>2009-12-13T08:15:57Z</time>
      </trkpt>
      <trkpt lat="43.76446" lon="4.24464">
        <ele>74.047</ele>
        <time>2009-12-13T08:16:09Z</time>
      </trkpt>
      <trkpt lat="43.7645" lon="4.24443">
        <ele>73.8</ele>
        <time>2009-12-13T08:16:25Z</time>
      </trkpt>
      <trkpt lat="43.76454" lon="4.24422">
        <ele>73.568</ele>
        <time>2009-12-13T08:16:36Z</time>
      </trkpt>
      <trkpt lat="43.76457" lon="4.24409">
        <ele>72.852</ele>
        <time>2009-12-13T08:16:48Z</time>
      </trkpt>
      <trkpt lat="43.76464" lon="4.24392">
        <ele>71.739</ele>
        <time>2009-12-13T08:16:57Z</time>
      </trkpt>
      <trkpt lat="43.76478" lon="4.2437">
        <ele>70.22</ele>
        <time>2009-12-13T08:17:04Z</time>
      </trkpt>
      <trkpt lat="43.7649" lon="4.24361">
        <ele>69.682</ele>
        <time>2009-12-13T08:17:07Z</time>
      </trkpt>
      <trkpt lat="43.76514" lon="4.2434">
        <ele>70.964</ele>
        <time>2009-12-13T08:17:14Z</time>
      </trkpt>
      <trkpt lat="43.76547" lon="4.24308">
        <ele>74.541</ele>
        <time>2009-12-13T08:17:29Z</time>
      </trkpt>
      <trkpt lat="43.7657" lon="4.24279">
        <ele>76.329</ele>
        <time>2009-12-13T08:17:42Z</time>
      </trkpt>
      <trkpt lat="43.766" lon="4.24248">
        <ele>76.197</ele>
        <time>2009-12-13T08:17:54Z</time>
      </trkpt>
      <trkpt lat="43.76598" lon="4.24221">
        <ele>75.869</ele>
        <time>2009-12-13T08:17:59Z</time>
      </trkpt>
      <trkpt lat="43.76587" lon="4.2418">
        <ele>76.645</ele>
        <time>2009-12-13T08:18:05Z</time>
      </trkpt>
      <trkpt lat="43.76559" lon="4.24092">
        <ele>78.979</ele>
        <time>2009-12-13T08:18:18Z</time>
      </trkpt>
      <trkpt lat="43.76542" lon="4.24103">
        <ele>77.881</ele>
        <time>2009-12-13T08:18:24Z</time>
      </trkpt>
      <trkpt lat="43.76533" lon="4.24113">
        <ele>77.187</ele>
        <time>2009-12-13T08:18:26Z</time>
      </trkpt>
      <trkpt lat="43.76523" lon="4.24126">
        <ele>75.741</ele>
        <time>2009-12-13T08:18:28Z</time>
      </trkpt>
      <trkpt lat="43.76507" lon="4.24174">
        <ele>72.463</ele>
        <time>2009-12-13T08:18:34Z</time>
      </trkpt>
      <trkpt lat="43.76489" lon="4.24185">
        <ele>70.232</ele>
        <time>2009-12-13T08:18:37Z</time>
      </trkpt>
      <trkpt lat="43.76475" lon="4.24194">
        <ele>68.665</ele>
        <time>2009-12-13T08:18:39Z</time>
      </trkpt>
      <trkpt lat="43.76464" lon="4.24205">
        <ele>67.972</ele>
        <time>2009-12-13T08:18:41Z</time>
      </trkpt>
      <trkpt lat="43.76444" lon="4.2426">
        <ele>66.382</ele>
        <time>2009-12-13T08:18:48Z</time>
      </trkpt>
      <trkpt lat="43.76428" lon="4.24274">
        <ele>65.052</ele>
        <time>2009-12-13T08:18:51Z</time>
      </trkpt>
      <trkpt lat="43.76401" lon="4.24288">
        <ele>64.1</ele>
        <time>2009-12-13T08:18:56Z</time>
      </trkpt>
      <trkpt lat="43.76393" lon="4.24301">
        <ele>64.873</ele>
        <time>2009-12-13T08:18:58Z</time>
      </trkpt>
      <trkpt lat="43.76374" lon="4.24316">
        <ele>65.877</ele>
        <time>2009-12-13T08:19:02Z</time>
      </trkpt>
      <trkpt lat="43.7636" lon="4.24327">
        <ele>66.872</ele>
        <time>2009-12-13T08:19:05Z</time>
      </trkpt>
      <trkpt lat="43.76339" lon="4.24339">
        <ele>67.07</ele>
        <time>2009-12-13T08:19:10Z</time>
      </trkpt>
      <trkpt lat="43.76314" lon="4.24346">
        <ele>66.493</ele>
        <time>2009-12-13T08:19:16Z</time>
      </trkpt>
      <trkpt lat="43.76289" lon="4.24356">
        <ele>66.324</ele>
        <time>2009-12-13T08:19:23Z</time>
      </trkpt>
      <trkpt lat="43.76278" lon="4.24357">
        <ele>64.944</ele>
        <time>2009-12-13T08:19:26Z</time>
      </trkpt>
      <trkpt lat="43.76269" lon="4.24362">
        <ele>64.077</ele>
        <time>2009-12-13T08:19:28Z</time>
      </trkpt>
      <trkpt lat="43.76257" lon="4.24372">
        <ele>64.152</ele>
        <time>2009-12-13T08:19:31Z</time>
      </trkpt>
      <trkpt lat="43.76239" lon="4.24388">
        <ele>63.243</ele>
        <time>2009-12-13T08:19:36Z</time>
      </trkpt>
      <trkpt lat="43.76226" lon="4.24392">
        <ele>62.164</ele>
        <time>2009-12-13T08:19:39Z</time>
      </trkpt>
      <trkpt lat="43.76208" lon="4.2439">
        <ele>60.233</ele>
        <time>2009-12-13T08:19:43Z</time>
      </trkpt>
      <trkpt lat="43.76188" lon="4.24382">
        <ele>58.253</ele>
        <time>2009-12-13T08:19:47Z</time>
      </trkpt>
      <trkpt lat="43.76168" lon="4.24375">
        <ele>56.133</ele>
        <time>2009-12-13T08:19:51Z</time>
      </trkpt>
      <trkpt lat="43.76152" lon="4.24369">
        <ele>55.09</ele>
        <time>2009-12-13T08:19:54Z</time>
      </trkpt>
      <trkpt lat="43.76117" lon="4.24347">
        <ele>53.19</ele>
        <time>2009-12-13T08:20:03Z</time>
      </trkpt>
      <trkpt lat="43.76082" lon="4.24334">
        <ele>52.484</ele>
        <time>2009-12-13T08:20:11Z</time>
      </trkpt>
      <trkpt lat="43.76048" lon="4.24333">
        <ele>51.701</ele>
        <time>2009-12-13T08:20:18Z</time>
      </trkpt>
      <trkpt lat="43.76016" lon="4.24346">
        <ele>51.389</ele>
        <time>2009-12-13T08:20:26Z</time>
      </trkpt>
      <trkpt lat="43.76006" lon="4.2436">
        <ele>51.179</ele>
        <time>2009-12-13T08:20:32Z</time>
      </trkpt>
      <trkpt lat="43.75995" lon="4.24369">
        <ele>51.001</ele>
        <time>2009-12-13T08:20:42Z</time>
      </trkpt>
      <trkpt lat="43.75968" lon="4.2437">
        <ele>51.462</ele>
        <time>2009-12-13T08:20:51Z</time>
      </trkpt>
      <trkpt lat="43.7594" lon="4.24384">
        <ele>53.151</ele>
        <time>2009-12-13T08:21:03Z</time>
      </trkpt>
      <trkpt lat="43.75927" lon="4.2437">
        <ele>53.6</ele>
        <time>2009-12-13T08:21:12Z</time>
      </trkpt>
      <trkpt lat="43.75912" lon="4.24317">
        <ele>53.329</ele>
        <time>2009-12-13T08:21:27Z</time>
      </trkpt>
      <trkpt lat="43.759" lon="4.24264">
        <ele>52.844</ele>
        <time>2009-12-13T08:21:38Z</time>
      </trkpt>
      <trkpt lat="43.75892" lon="4.24233">
        <ele>52.521</ele>
        <time>2009-12-13T08:21:44Z</time>
      </trkpt>
      <trkpt lat="43.75899" lon="4.24219">
        <ele>52.411</ele>
        <time>2009-12-13T08:21:48Z</time>
      </trkpt>
      <trkpt lat="43.75913" lon="4.2421">
        <ele>51.914</ele>
        <time>2009-12-13T08:21:53Z</time>
      </trkpt>
      <trkpt lat="43.75914" lon="4.2417">
        <ele>52.505</ele>
        <time>2009-12-13T08:22:03Z</time>
      </trkpt>
      <trkpt lat="43.75912" lon="4.2414">
        <ele>53.083</ele>
        <time>2009-12-13T08:22:11Z</time>
      </trkpt>
      <trkpt lat="43.75891" lon="4.24145">
        <ele>52.653</ele>
        <time>2009-12-13T08:22:20Z</time>
      </trkpt>
      <trkpt lat="43.75879" lon="4.24171">
        <ele>52.746</ele>
        <time>2009-12-13T08:22:31Z</time>
      </trkpt>
      <trkpt lat="43.75882" lon="4.24191">
        <ele>52.437</ele>
        <time>2009-12-13T08:22:37Z</time>
      </trkpt>
      <trkpt lat="43.75888" lon="4.24205">
        <ele>52.575</ele>
        <time>2009-12-13T08:22:44Z</time>
      </trkpt>
      <trkpt lat="43.75878" lon="4.24237">
        <ele>53.205</ele>
        <time>2009-12-13T08:22:53Z</time>
      </trkpt>
      <trkpt lat="43.75881" lon="4.24257">
        <ele>53.581</ele>
        <time>2009-12-13T08:23:00Z</time>
      </trkpt>
      <trkpt lat="43.7587" lon="4.24273">
        <ele>54.491</ele>
        <time>2009-12-13T08:23:11Z</time>
      </trkpt>
      <trkpt lat="43.7586" lon="4.24276">
        <ele>55.019</ele>
        <time>2009-12-13T08:23:20Z</time>
      </trkpt>
      <trkpt lat="43.75859" lon="4.24298">
        <ele>55.676</ele>
        <time>2009-12-13T08:23:31Z</time>
      </trkpt>
      <trkpt lat="43.75849" lon="4.24313">
        <ele>57.17</ele>
        <time>2009-12-13T08:23:42Z</time>
      </trkpt>
      <trkpt lat="43.75843" lon="4.24325">
        <ele>59.058</ele>
        <time>2009-12-13T08:23:50Z</time>
      </trkpt>
      <trkpt lat="43.75829" lon="4.2432">
        <ele>59.894</ele>
        <time>2009-12-13T08:23:59Z</time>
      </trkpt>
      <trkpt lat="43.75817" lon="4.24341">
        <ele>64.93</ele>
        <time>2009-12-13T08:24:25Z</time>
      </trkpt>
      <trkpt lat="43.75805" lon="4.24344">
        <ele>66.602</ele>
        <time>2009-12-13T08:24:41Z</time>
      </trkpt>
      <trkpt lat="43.75794" lon="4.24363">
        <ele>69.165</ele>
        <time>2009-12-13T08:24:52Z</time>
      </trkpt>
      <trkpt lat="43.75778" lon="4.24355">
        <ele>70.364</ele>
        <time>2009-12-13T08:25:01Z</time>
      </trkpt>
      <trkpt lat="43.75762" lon="4.24368">
        <ele>73.142</ele>
        <time>2009-12-13T08:25:11Z</time>
      </trkpt>
      <trkpt lat="43.75743" lon="4.2436">
        <ele>70.424</ele>
        <time>2009-12-13T08:25:24Z</time>
      </trkpt>
      <trkpt lat="43.75729" lon="4.24354">
        <ele>68.738</ele>
        <time>2009-12-13T08:25:31Z</time>
      </trkpt>
      <trkpt lat="43.7572" lon="4.24357">
        <ele>70.558</ele>
        <time>2009-12-13T08:25:35Z</time>
      </trkpt>
      <trkpt lat="43.75705" lon="4.24358">
        <ele>70.084</ele>
        <time>2009-12-13T08:25:45Z</time>
      </trkpt>
      <trkpt lat="43.75688" lon="4.24358">
        <ele>68.432</ele>
        <time>2009-12-13T08:25:50Z</time>
      </trkpt>
      <trkpt lat="43.75683" lon="4.24371">
        <ele>69.797</ele>
        <time>2009-12-13T08:26:08Z</time>
      </trkpt>
      <trkpt lat="43.75669" lon="4.2438">
        <ele>68.838</ele>
        <time>2009-12-13T08:26:18Z</time>
      </trkpt>
      <trkpt lat="43.75649" lon="4.24395">
        <ele>67.299</ele>
        <time>2009-12-13T08:26:23Z</time>
      </trkpt>
      <trkpt lat="43.75626" lon="4.24416">
        <ele>67.922</ele>
        <time>2009-12-13T08:26:33Z</time>
      </trkpt>
      <trkpt lat="43.75616" lon="4.24427">
        <ele>66.922</ele>
        <time>2009-12-13T08:26:39Z</time>
      </trkpt>
      <trkpt lat="43.75611" lon="4.24439">
        <ele>66.637</ele>
        <time>2009-12-13T08:26:44Z</time>
      </trkpt>
      <trkpt lat="43.75604" lon="4.2446">
        <ele>66.017</ele>
        <time>2009-12-13T08:26:54Z</time>
      </trkpt>
      <trkpt lat="43.75603" lon="4.24478">
        <ele>65.633</ele>
        <time>2009-12-13T08:26:59Z</time>
      </trkpt>
      <trkpt lat="43.75594" lon="4.24505">
        <ele>64.362</ele>
        <time>2009-12-13T08:27:05Z</time>
      </trkpt>
      <trkpt lat="43.75587" lon="4.2452">
        <ele>63.389</ele>
        <time>2009-12-13T08:27:08Z</time>
      </trkpt>
      <trkpt lat="43.75596" lon="4.24542">
        <ele>62.715</ele>
        <time>2009-12-13T08:27:15Z</time>
      </trkpt>
      <trkpt lat="43.75589" lon="4.24559">
        <ele>61.424</ele>
        <time>2009-12-13T08:27:23Z</time>
      </trkpt>
      <trkpt lat="43.75578" lon="4.24609">
        <ele>58.246</ele>
        <time>2009-12-13T08:27:34Z</time>
      </trkpt>
      <trkpt lat="43.75578" lon="4.24634">
        <ele>57.746</ele>
        <time>2009-12-13T08:27:38Z</time>
      </trkpt>
      <trkpt lat="43.75575" lon="4.24652">
        <ele>56.439</ele>
        <time>2009-12-13T08:27:41Z</time>
      </trkpt>
      <trkpt lat="43.7557" lon="4.24662">
        <ele>56.374</ele>
        <time>2009-12-13T08:27:45Z</time>
      </trkpt>
      <trkpt lat="43.75552" lon="4.24658">
        <ele>55.954</ele>
        <time>2009-12-13T08:27:51Z</time>
      </trkpt>
      <trkpt lat="43.75541" lon="4.24641">
        <ele>56.021</ele>
        <time>2009-12-13T08:27:56Z</time>
      </trkpt>
      <trkpt lat="43.75526" lon="4.24654">
        <ele>53.906</ele>
        <time>2009-12-13T08:28:04Z</time>
      </trkpt>
      <trkpt lat="43.75538" lon="4.24723">
        <ele>51.623</ele>
        <time>2009-12-13T08:28:11Z</time>
      </trkpt>
      <trkpt lat="43.75524" lon="4.24846">
        <ele>54.671</ele>
        <time>2009-12-13T08:28:24Z</time>
      </trkpt>
      <trkpt lat="43.75505" lon="4.2486">
        <ele>54.023</ele>
        <time>2009-12-13T08:28:28Z</time>
      </trkpt>
      <trkpt lat="43.75489" lon="4.24884">
        <ele>56.203</ele>
        <time>2009-12-13T08:28:35Z</time>
      </trkpt>
      <trkpt lat="43.75472" lon="4.2489">
        <ele>56.425</ele>
        <time>2009-12-13T08:28:49Z</time>
      </trkpt>
      <trkpt lat="43.75456" lon="4.24897">
        <ele>56.43</ele>
        <time>2009-12-13T08:28:57Z</time>
      </trkpt>
      <trkpt lat="43.75417" lon="4.24902">
        <ele>55.958</ele>
        <time>2009-12-13T08:29:10Z</time>
      </trkpt>
      <trkpt lat="43.75398" lon="4.24886">
        <ele>54.652</ele>
        <time>2009-12-13T08:29:16Z</time>
      </trkpt>
      <trkpt lat="43.75387" lon="4.2487">
        <ele>53.389</ele>
        <time>2009-12-13T08:29:22Z</time>
      </trkpt>
      <trkpt lat="43.75386" lon="4.24844">
        <ele>50.351</ele>
        <time>2009-12-13T08:29:27Z</time>
      </trkpt>
      <trkpt lat="43.75395" lon="4.24813">
        <ele>47.639</ele>
        <time>2009-12-13T08:29:34Z</time>
      </trkpt>
      <trkpt lat="43.75403" lon="4.24804">
        <ele>46.99</ele>
        <time>2009-12-13T08:29:37Z</time>
      </trkpt>
      <trkpt lat="43.75412" lon="4.2478">
        <ele>45.119</ele>
        <time>2009-12-13T08:29:43Z</time>
      </trkpt>
      <trkpt lat="43.75415" lon="4.24748">
        <ele>45.162</ele>
        <time>2009-12-13T08:29:49Z</time>
      </trkpt>
      <trkpt lat="43.75418" lon="4.24718">
        <ele>47.073</ele>
        <time>2009-12-13T08:29:56Z</time>
      </trkpt>
      <trkpt lat="43.75403" lon="4.2469">
        <ele>47.798</ele>
        <time>2009-12-13T08:30:06Z</time>
      </trkpt>
      <trkpt lat="43.75386" lon="4.24653">
        <ele>48.04</ele>
        <time>2009-12-13T08:30:16Z</time>
      </trkpt>
      <trkpt lat="43.75381" lon="4.24597">
        <ele>49.248</ele>
        <time>2009-12-13T08:30:28Z</time>
      </trkpt>
      <trkpt lat="43.75356" lon="4.24577">
        <ele>48.664</ele>
        <time>2009-12-13T08:30:39Z</time>
      </trkpt>
      <trkpt lat="43.75328" lon="4.24582">
        <ele>49.093</ele>
        <time>2009-12-13T08:30:48Z</time>
      </trkpt>
      <trkpt lat="43.75327" lon="4.24602">
        <ele>50.107</ele>
        <time>2009-12-13T08:30:57Z</time>
      </trkpt>
      <trkpt lat="43.75306" lon="4.24612">
        <ele>49.597</ele>
        <time>2009-12-13T08:31:17Z</time>
      </trkpt>
      <trkpt lat="43.75306" lon="4.24638">
        <ele>43.608</ele>
        <time>2009-12-13T08:31:28Z</time>
      </trkpt>
      <trkpt lat="43.75306" lon="4.24654">
        <ele>43.855</ele>
        <time>2009-12-13T08:31:34Z</time>
      </trkpt>
      <trkpt lat="43.75309" lon="4.24677">
        <ele>44.013</ele>
        <time>2009-12-13T08:31:40Z</time>
      </trkpt>
      <trkpt lat="43.75318" lon="4.24699">
        <ele>47.548</ele>
        <time>2009-12-13T08:31:45Z</time>
      </trkpt>
      <trkpt lat="43.75319" lon="4.24724">
        <ele>47.15</ele>
        <time>2009-12-13T08:31:53Z</time>
      </trkpt>
      <trkpt lat="43.75312" lon="4.24732">
        <ele>45.709</ele>
        <time>2009-12-13T08:31:55Z</time>
      </trkpt>
      <trkpt lat="43.75289" lon="4.24741">
        <ele>44.077</ele>
        <time>2009-12-13T08:32:00Z</time>
      </trkpt>
      <trkpt lat="43.75272" lon="4.24738">
        <ele>44.276</ele>
        <time>2009-12-13T08:32:04Z</time>
      </trkpt>
      <trkpt lat="43.75231" lon="4.24732">
        <ele>39.416</ele>
        <time>2009-12-13T08:32:12Z</time>
      </trkpt>
      <trkpt lat="43.75187" lon="4.24696">
        <ele>40.285</ele>
        <time>2009-12-13T08:32:21Z</time>
      </trkpt>
      <trkpt lat="43.75177" lon="4.24668">
        <ele>41.106</ele>
        <time>2009-12-13T08:32:27Z</time>
      </trkpt>
      <trkpt lat="43.75187" lon="4.24656">
        <ele>43.295</ele>
        <time>2009-12-13T08:32:32Z</time>
      </trkpt>
      <trkpt lat="43.75196" lon="4.24658">
        <ele>44.514</ele>
        <time>2009-12-13T08:32:35Z</time>
      </trkpt>
      <trkpt lat="43.752" lon="4.24643">
        <ele>42.799</ele>
        <time>2009-12-13T08:32:42Z</time>
      </trkpt>
      <trkpt lat="43.75182" lon="4.24635">
        <ele>40.965</ele>
        <time>2009-12-13T08:32:50Z</time>
      </trkpt>
      <trkpt lat="43.75173" lon="4.24633">
        <ele>39.47</ele>
        <time>2009-12-13T08:32:53Z</time>
      </trkpt>
      <trkpt lat="43.75157" lon="4.24617">
        <ele>37.382</ele>
        <time>2009-12-13T08:33:01Z</time>
      </trkpt>
      <trkpt lat="43.75154" lon="4.2459">
        <ele>36.22</ele>
        <time>2009-12-13T08:33:07Z</time>
      </trkpt>
      <trkpt lat="43.75162" lon="4.24568">
        <ele>36.894</ele>
        <time>2009-12-13T08:33:13Z</time>
      </trkpt>
      <trkpt lat="43.75171" lon="4.24564">
        <ele>37.027</ele>
        <time>2009-12-13T08:33:15Z</time>
      </trkpt>
      <trkpt lat="43.75213" lon="4.2455">
        <ele>39.371</ele>
        <time>2009-12-13T08:33:26Z</time>
      </trkpt>
      <trkpt lat="43.75224" lon="4.24567">
        <ele>39.648</ele>
        <time>2009-12-13T08:33:31Z</time>
      </trkpt>
      <trkpt lat="43.75246" lon="4.24605">
        <ele>39.842</ele>
        <time>2009-12-13T08:33:39Z</time>
      </trkpt>
      <trkpt lat="43.75261" lon="4.24621">
        <ele>43.661</ele>
        <time>2009-12-13T08:33:44Z</time>
      </trkpt>
      <trkpt lat="43.75271" lon="4.24631">
        <ele>46.287</ele>
        <time>2009-12-13T08:33:49Z</time>
      </trkpt>
      <trkpt lat="43.75271" lon="4.24651">
        <ele>46.418</ele>
        <time>2009-12-13T08:33:55Z</time>
      </trkpt>
      <trkpt lat="43.75272" lon="4.24676">
        <ele>47.026</ele>
        <time>2009-12-13T08:34:05Z</time>
      </trkpt>
      <trkpt lat="43.75283" lon="4.24676">
        <ele>47.922</ele>
        <time>2009-12-13T08:34:13Z</time>
      </trkpt>
      <trkpt lat="43.75295" lon="4.24675">
        <ele>43.883</ele>
        <time>2009-12-13T08:34:36Z</time>
      </trkpt>
      <trkpt lat="43.75297" lon="4.24657">
        <ele>43.544</ele>
        <time>2009-12-13T08:34:46Z</time>
      </trkpt>
      <trkpt lat="43.75293" lon="4.24637">
        <ele>43.118</ele>
        <time>2009-12-13T08:34:57Z</time>
      </trkpt>
      <trkpt lat="43.75298" lon="4.24625">
        <ele>45.301</ele>
        <time>2009-12-13T08:35:10Z</time>
      </trkpt>
      <trkpt lat="43.75302" lon="4.24611">
        <ele>49.818</ele>
        <time>2009-12-13T08:35:30Z</time>
      </trkpt>
      <trkpt lat="43.75286" lon="4.24619">
        <ele>42.681</ele>
        <time>2009-12-13T08:35:52Z</time>
      </trkpt>
      <trkpt lat="43.75277" lon="4.24603">
        <ele>41.826</ele>
        <time>2009-12-13T08:35:59Z</time>
      </trkpt>
      <trkpt lat="43.75263" lon="4.24562">
        <ele>40.609</ele>
        <time>2009-12-13T08:36:10Z</time>
      </trkpt>
      <trkpt lat="43.7524" lon="4.24552">
        <ele>39.828</ele>
        <time>2009-12-13T08:36:15Z</time>
      </trkpt>
      <trkpt lat="43.75233" lon="4.24537">
        <ele>40.489</ele>
        <time>2009-12-13T08:36:22Z</time>
      </trkpt>
      <trkpt lat="43.75254" lon="4.24525">
        <ele>40.754</ele>
        <time>2009-12-13T08:36:27Z</time>
      </trkpt>
      <trkpt lat="43.75301" lon="4.24471">
        <ele>43.593</ele>
        <time>2009-12-13T08:36:41Z</time>
      </trkpt>
      <trkpt lat="43.7534" lon="4.24439">
        <ele>45.783</ele>
        <time>2009-12-13T08:36:53Z</time>
      </trkpt>
      <trkpt lat="43.75382" lon="4.24397">
        <ele>47.821</ele>
        <time>2009-12-13T08:37:07Z</time>
      </trkpt>
      <trkpt lat="43.75431" lon="4.24376">
        <ele>49.304</ele>
        <time>2009-12-13T08:37:21Z</time>
      </trkpt>
      <trkpt lat="43.75482" lon="4.24369">
        <ele>52.304</ele>
        <time>2009-12-13T08:37:36Z</time>
      </trkpt>
      <trkpt lat="43.75531" lon="4.24359">
        <ele>57.154</ele>
        <time>2009-12-13T08:37:54Z</time>
      </trkpt>
      <trkpt lat="43.75568" lon="4.24345">
        <ele>59.253</ele>
        <time>2009-12-13T08:38:09Z</time>
      </trkpt>
      <trkpt lat="43.75611" lon="4.24317">
        <ele>59.201</ele>
        <time>2009-12-13T08:38:22Z</time>
      </trkpt>
      <trkpt lat="43.75653" lon="4.24278">
        <ele>58.928</ele>
        <time>2009-12-13T08:38:34Z</time>
      </trkpt>
      <trkpt lat="43.75692" lon="4.24251">
        <ele>57.557</ele>
        <time>2009-12-13T08:38:43Z</time>
      </trkpt>
      <trkpt lat="43.7571" lon="4.24239">
        <ele>57.149</ele>
        <time>2009-12-13T08:38:47Z</time>
      </trkpt>
      <trkpt lat="43.75718" lon="4.2423">
        <ele>56.54</ele>
        <time>2009-12-13T08:38:49Z</time>
      </trkpt>
      <trkpt lat="43.75727" lon="4.24221">
        <ele>56.18</ele>
        <time>2009-12-13T08:38:51Z</time>
      </trkpt>
      <trkpt lat="43.75765" lon="4.24173">
        <ele>54.082</ele>
        <time>2009-12-13T08:39:00Z</time>
      </trkpt>
      <trkpt lat="43.75775" lon="4.24154">
        <ele>53.477</ele>
        <time>2009-12-13T08:39:03Z</time>
      </trkpt>
      <trkpt lat="43.7581" lon="4.2413">
        <ele>53.208</ele>
        <time>2009-12-13T08:39:10Z</time>
      </trkpt>
      <trkpt lat="43.75825" lon="4.24112">
        <ele>53.701</ele>
        <time>2009-12-13T08:39:15Z</time>
      </trkpt>
      <trkpt lat="43.75821" lon="4.24048">
        <ele>54.574</ele>
        <time>2009-12-13T08:39:27Z</time>
      </trkpt>
      <trkpt lat="43.75814" lon="4.23983">
        <ele>56.208</ele>
        <time>2009-12-13T08:39:40Z</time>
      </trkpt>
      <trkpt lat="43.75804" lon="4.23916">
        <ele>55.84</ele>
        <time>2009-12-13T08:39:53Z</time>
      </trkpt>
      <trkpt lat="43.75819" lon="4.23911">
        <ele>56.555</ele>
        <time>2009-12-13T08:39:58Z</time>
      </trkpt>
      <trkpt lat="43.7587" lon="4.23935">
        <ele>59.078</ele>
        <time>2009-12-13T08:40:13Z</time>
      </trkpt>
      <trkpt lat="43.75907" lon="4.23926">
        <ele>61.536</ele>
        <time>2009-12-13T08:40:25Z</time>
      </trkpt>
      <trkpt lat="43.75955" lon="4.23916">
        <ele>63.7</ele>
        <time>2009-12-13T08:40:41Z</time>
      </trkpt>
      <trkpt lat="43.75999" lon="4.23908">
        <ele>65.426</ele>
        <time>2009-12-13T08:40:56Z</time>
      </trkpt>
      <trkpt lat="43.76031" lon="4.23898">
        <ele>66.364</ele>
        <time>2009-12-13T08:41:07Z</time>
      </trkpt>
      <trkpt lat="43.76075" lon="4.2388">
        <ele>67.384</ele>
        <time>2009-12-13T08:41:21Z</time>
      </trkpt>
      <trkpt lat="43.76115" lon="4.23844">
        <ele>68.189</ele>
        <time>2009-12-13T08:41:33Z</time>
      </trkpt>
      <trkpt lat="43.76146" lon="4.23825">
        <ele>69.468</ele>
        <time>2009-12-13T08:41:43Z</time>
      </trkpt>
      <trkpt lat="43.76177" lon="4.23755">
        <ele>73.15</ele>
        <time>2009-12-13T08:42:02Z</time>
      </trkpt>
      <trkpt lat="43.76212" lon="4.23672">
        <ele>76.911</ele>
        <time>2009-12-13T08:42:24Z</time>
      </trkpt>
      <trkpt lat="43.76241" lon="4.23606">
        <ele>77.767</ele>
        <time>2009-12-13T08:42:43Z</time>
      </trkpt>
      <trkpt lat="43.76248" lon="4.2358">
        <ele>77.089</ele>
        <time>2009-12-13T08:42:55Z</time>
      </trkpt>
      <trkpt lat="43.76256" lon="4.23558">
        <ele>76.5</ele>
        <time>2009-12-13T08:42:59Z</time>
      </trkpt>
      <trkpt lat="43.76292" lon="4.23467">
        <ele>75.139</ele>
        <time>2009-12-13T08:43:16Z</time>
      </trkpt>
      <trkpt lat="43.76324" lon="4.2342">
        <ele>75.455</ele>
        <time>2009-12-13T08:43:30Z</time>
      </trkpt>
      <trkpt lat="43.76376" lon="4.23418">
        <ele>78.458</ele>
        <time>2009-12-13T08:43:46Z</time>
      </trkpt>
      <trkpt lat="43.76406" lon="4.23403">
        <ele>78.865</ele>
        <time>2009-12-13T08:43:56Z</time>
      </trkpt>
      <trkpt lat="43.7644" lon="4.23378">
        <ele>79.52</ele>
        <time>2009-12-13T08:44:08Z</time>
      </trkpt>
      <trkpt lat="43.7647" lon="4.23359">
        <ele>80.596</ele>
        <time>2009-12-13T08:44:19Z</time>
      </trkpt>
      <trkpt lat="43.76498" lon="4.2334">
        <ele>81.024</ele>
        <time>2009-12-13T08:44:30Z</time>
      </trkpt>
      <trkpt lat="43.76532" lon="4.23326">
        <ele>82.187</ele>
        <time>2009-12-13T08:44:42Z</time>
      </trkpt>
      <trkpt lat="43.76564" lon="4.23295">
        <ele>82.944</ele>
        <time>2009-12-13T08:44:54Z</time>
      </trkpt>
      <trkpt lat="43.76595" lon="4.23288">
        <ele>83.998</ele>
        <time>2009-12-13T08:45:06Z</time>
      </trkpt>
      <trkpt lat="43.7663" lon="4.23303">
        <ele>86.444</ele>
        <time>2009-12-13T08:45:20Z</time>
      </trkpt>
      <trkpt lat="43.76661" lon="4.23323">
        <ele>88.064</ele>
        <time>2009-12-13T08:45:32Z</time>
      </trkpt>
      <trkpt lat="43.76678" lon="4.23342">
        <ele>89.173</ele>
        <time>2009-12-13T08:45:42Z</time>
      </trkpt>
      <trkpt lat="43.767" lon="4.23351">
        <ele>90.429</ele>
        <time>2009-12-13T08:45:54Z</time>
      </trkpt>
      <trkpt lat="43.76727" lon="4.23349">
        <ele>91.127</ele>
        <time>2009-12-13T08:46:06Z</time>
      </trkpt>
      <trkpt lat="43.76755" lon="4.23394">
        <ele>91.556</ele>
        <time>2009-12-13T08:46:19Z</time>
      </trkpt>
      <trkpt lat="43.76785" lon="4.2344">
        <ele>92.313</ele>
        <time>2009-12-13T08:46:31Z</time>
      </trkpt>
      <trkpt lat="43.76821" lon="4.23515">
        <ele>91.706</ele>
        <time>2009-12-13T08:46:46Z</time>
      </trkpt>
      <trkpt lat="43.76841" lon="4.2355">
        <ele>90</ele>
        <time>2009-12-13T08:46:52Z</time>
      </trkpt>
      <trkpt lat="43.7687" lon="4.23587">
        <ele>88.218</ele>
        <time>2009-12-13T08:46:59Z</time>
      </trkpt>
      <trkpt lat="43.76897" lon="4.23638">
        <ele>85.686</ele>
        <time>2009-12-13T08:47:06Z</time>
      </trkpt>
      <trkpt lat="43.76905" lon="4.23687">
        <ele>84.941</ele>
        <time>2009-12-13T08:47:11Z</time>
      </trkpt>
      <trkpt lat="43.76911" lon="4.2372">
        <ele>84.061</ele>
        <time>2009-12-13T08:47:15Z</time>
      </trkpt>
      <trkpt lat="43.7692" lon="4.23745">
        <ele>83.563</ele>
        <time>2009-12-13T08:47:18Z</time>
      </trkpt>
      <trkpt lat="43.76951" lon="4.23789">
        <ele>82.088</ele>
        <time>2009-12-13T08:47:25Z</time>
      </trkpt>
      <trkpt lat="43.76961" lon="4.23805">
        <ele>80.664</ele>
        <time>2009-12-13T08:47:27Z</time>
      </trkpt>
      <trkpt lat="43.76967" lon="4.23822">
        <ele>79.339</ele>
        <time>2009-12-13T08:47:29Z</time>
      </trkpt>
      <trkpt lat="43.76985" lon="4.23854">
        <ele>76.081</ele>
        <time>2009-12-13T08:47:33Z</time>
      </trkpt>
      <trkpt lat="43.77005" lon="4.23895">
        <ele>73.271</ele>
        <time>2009-12-13T08:47:38Z</time>
      </trkpt>
      <trkpt lat="43.77023" lon="4.23926">
        <ele>71.748</ele>
        <time>2009-12-13T08:47:42Z</time>
      </trkpt>
      <trkpt lat="43.7704" lon="4.23965">
        <ele>72.005</ele>
        <time>2009-12-13T08:47:47Z</time>
      </trkpt>
      <trkpt lat="43.77054" lon="4.24043">
        <ele>75.384</ele>
        <time>2009-12-13T08:48:01Z</time>
      </trkpt>
      <trkpt lat="43.77035" lon="4.24094">
        <ele>75.18</ele>
        <time>2009-12-13T08:48:12Z</time>
      </trkpt>
      <trkpt lat="43.77029" lon="4.24109">
        <ele>75</ele>
        <time>2009-12-13T08:48:15Z</time>
      </trkpt>
      <trkpt lat="43.77037" lon="4.24128">
        <ele>75.25</ele>
        <time>2009-12-13T08:48:20Z</time>
      </trkpt>
      <trkpt lat="43.77097" lon="4.24163">
        <ele>79.276</ele>
        <time>2009-12-13T08:48:38Z</time>
      </trkpt>
      <trkpt lat="43.77131" lon="4.24179">
        <ele>82.478</ele>
        <time>2009-12-13T08:48:49Z</time>
      </trkpt>
      <trkpt lat="43.77177" lon="4.24219">
        <ele>84.382</ele>
        <time>2009-12-13T08:49:04Z</time>
      </trkpt>
      <trkpt lat="43.77203" lon="4.24235">
        <ele>85.16</ele>
        <time>2009-12-13T08:49:12Z</time>
      </trkpt>
      <trkpt lat="43.77222" lon="4.24219">
        <ele>86.983</ele>
        <time>2009-12-13T08:49:19Z</time>
      </trkpt>
      <trkpt lat="43.77247" lon="4.24175">
        <ele>89.657</ele>
        <time>2009-12-13T08:49:35Z</time>
      </trkpt>
      <trkpt lat="43.77269" lon="4.24135">
        <ele>91.876</ele>
        <time>2009-12-13T08:49:49Z</time>
      </trkpt>
      <trkpt lat="43.77292" lon="4.24106">
        <ele>93.59</ele>
        <time>2009-12-13T08:50:02Z</time>
      </trkpt>
      <trkpt lat="43.77319" lon="4.24083">
        <ele>94.861</ele>
        <time>2009-12-13T08:50:14Z</time>
      </trkpt>
      <trkpt lat="43.77352" lon="4.24059">
        <ele>96.601</ele>
        <time>2009-12-13T08:50:27Z</time>
      </trkpt>
      <trkpt lat="43.77381" lon="4.24048">
        <ele>97.978</ele>
        <time>2009-12-13T08:50:38Z</time>
      </trkpt>
      <trkpt lat="43.77416" lon="4.24058">
        <ele>98.136</ele>
        <time>2009-12-13T08:50:50Z</time>
      </trkpt>
      <trkpt lat="43.7745" lon="4.24083">
        <ele>98.605</ele>
        <time>2009-12-13T08:51:01Z</time>
      </trkpt>
      <trkpt lat="43.77487" lon="4.24087">
        <ele>99.23</ele>
        <time>2009-12-13T08:51:10Z</time>
      </trkpt>
      <trkpt lat="43.77516" lon="4.24089">
        <ele>99.592</ele>
        <time>2009-12-13T08:51:19Z</time>
      </trkpt>
      <trkpt lat="43.77524" lon="4.24055">
        <ele>97.892</ele>
        <time>2009-12-13T08:51:26Z</time>
      </trkpt>
      <trkpt lat="43.77548" lon="4.24058">
        <ele>97.171</ele>
        <time>2009-12-13T08:51:32Z</time>
      </trkpt>
      <trkpt lat="43.77581" lon="4.24071">
        <ele>96.967</ele>
        <time>2009-12-13T08:51:39Z</time>
      </trkpt>
      <trkpt lat="43.776" lon="4.24085">
        <ele>96.716</ele>
        <time>2009-12-13T08:51:43Z</time>
      </trkpt>
      <trkpt lat="43.77642" lon="4.24124">
        <ele>95.437</ele>
        <time>2009-12-13T08:51:53Z</time>
      </trkpt>
      <trkpt lat="43.77684" lon="4.2415">
        <ele>92.96</ele>
        <time>2009-12-13T08:52:00Z</time>
      </trkpt>
      <trkpt lat="43.77714" lon="4.24175">
        <ele>91.552</ele>
        <time>2009-12-13T08:52:05Z</time>
      </trkpt>
      <trkpt lat="43.77736" lon="4.24189">
        <ele>91.228</ele>
        <time>2009-12-13T08:52:09Z</time>
      </trkpt>
      <trkpt lat="43.77744" lon="4.242">
        <ele>90.809</ele>
        <time>2009-12-13T08:52:11Z</time>
      </trkpt>
      <trkpt lat="43.77767" lon="4.24218">
        <ele>89.382</ele>
        <time>2009-12-13T08:52:15Z</time>
      </trkpt>
      <trkpt lat="43.77783" lon="4.24231">
        <ele>90.848</ele>
        <time>2009-12-13T08:52:19Z</time>
      </trkpt>
      <trkpt lat="43.77795" lon="4.24232">
        <ele>89.044</ele>
        <time>2009-12-13T08:52:23Z</time>
      </trkpt>
      <trkpt lat="43.77831" lon="4.24249">
        <ele>91.032</ele>
        <time>2009-12-13T08:52:31Z</time>
      </trkpt>
      <trkpt lat="43.77852" lon="4.2427">
        <ele>92.941</ele>
        <time>2009-12-13T08:52:40Z</time>
      </trkpt>
      <trkpt lat="43.77865" lon="4.2429">
        <ele>94.488</ele>
        <time>2009-12-13T08:52:50Z</time>
      </trkpt>
      <trkpt lat="43.77916" lon="4.24324">
        <ele>96.758</ele>
        <time>2009-12-13T08:53:08Z</time>
      </trkpt>
      <trkpt lat="43.77964" lon="4.24359">
        <ele>98.386</ele>
        <time>2009-12-13T08:53:26Z</time>
      </trkpt>
      <trkpt lat="43.78021" lon="4.24401">
        <ele>99.534</ele>
        <time>2009-12-13T08:53:45Z</time>
      </trkpt>
      <trkpt lat="43.78078" lon="4.24438">
        <ele>98.325</ele>
        <time>2009-12-13T08:54:00Z</time>
      </trkpt>
      <trkpt lat="43.78131" lon="4.2448">
        <ele>95.168</ele>
        <time>2009-12-13T08:54:13Z</time>
      </trkpt>
      <trkpt lat="43.78152" lon="4.24494">
        <ele>94.456</ele>
        <time>2009-12-13T08:54:17Z</time>
      </trkpt>
      <trkpt lat="43.78168" lon="4.24503">
        <ele>94.144</ele>
        <time>2009-12-13T08:54:20Z</time>
      </trkpt>
      <trkpt lat="43.78185" lon="4.24519">
        <ele>94.715</ele>
        <time>2009-12-13T08:54:24Z</time>
      </trkpt>
      <trkpt lat="43.78204" lon="4.24495">
        <ele>89.373</ele>
        <time>2009-12-13T08:54:35Z</time>
      </trkpt>
      <trkpt lat="43.78214" lon="4.24473">
        <ele>85.069</ele>
        <time>2009-12-13T08:54:44Z</time>
      </trkpt>
      <trkpt lat="43.78232" lon="4.2447">
        <ele>83.724</ele>
        <time>2009-12-13T08:54:51Z</time>
      </trkpt>
      <trkpt lat="43.78306" lon="4.24476">
        <ele>85.413</ele>
        <time>2009-12-13T08:55:08Z</time>
      </trkpt>
      <trkpt lat="43.78319" lon="4.2448">
        <ele>86.196</ele>
        <time>2009-12-13T08:55:15Z</time>
      </trkpt>
      <trkpt lat="43.78323" lon="4.24493">
        <ele>89.679</ele>
        <time>2009-12-13T08:55:33Z</time>
      </trkpt>
      <trkpt lat="43.78334" lon="4.24508">
        <ele>92.169</ele>
        <time>2009-12-13T08:55:44Z</time>
      </trkpt>
      <trkpt lat="43.78325" lon="4.2452">
        <ele>94.332</ele>
        <time>2009-12-13T08:55:58Z</time>
      </trkpt>
      <trkpt lat="43.78317" lon="4.24533">
        <ele>95.63</ele>
        <time>2009-12-13T08:56:08Z</time>
      </trkpt>
      <trkpt lat="43.78297" lon="4.24551">
        <ele>97.69</ele>
        <time>2009-12-13T08:56:22Z</time>
      </trkpt>
      <trkpt lat="43.78296" lon="4.24565">
        <ele>99.037</ele>
        <time>2009-12-13T08:56:30Z</time>
      </trkpt>
      <trkpt lat="43.78288" lon="4.24589">
        <ele>102.972</ele>
        <time>2009-12-13T08:57:00Z</time>
      </trkpt>
      <trkpt lat="43.78286" lon="4.24602">
        <ele>102.973</ele>
        <time>2009-12-13T08:57:14Z</time>
      </trkpt>
      <trkpt lat="43.78293" lon="4.24612">
        <ele>102.334</ele>
        <time>2009-12-13T08:59:43Z</time>
      </trkpt>
      <trkpt lat="43.78325" lon="4.24626">
        <ele>103.902</ele>
        <time>2009-12-13T08:59:57Z</time>
      </trkpt>
      <trkpt lat="43.78343" lon="4.24635">
        <ele>103.834</ele>
        <time>2009-12-13T09:00:04Z</time>
      </trkpt>
      <trkpt lat="43.78342" lon="4.24674">
        <ele>106.536</ele>
        <time>2009-12-13T09:00:16Z</time>
      </trkpt>
      <trkpt lat="43.78336" lon="4.24683">
        <ele>106.049</ele>
        <time>2009-12-13T09:00:21Z</time>
      </trkpt>
      <trkpt lat="43.78332" lon="4.24698">
        <ele>106.482</ele>
        <time>2009-12-13T09:00:25Z</time>
      </trkpt>
      <trkpt lat="43.78333" lon="4.24712">
        <ele>106.09</ele>
        <time>2009-12-13T09:00:33Z</time>
      </trkpt>
      <trkpt lat="43.78318" lon="4.2472">
        <ele>105.259</ele>
        <time>2009-12-13T09:00:40Z</time>
      </trkpt>
      <trkpt lat="43.7831" lon="4.24741">
        <ele>104.723</ele>
        <time>2009-12-13T09:00:48Z</time>
      </trkpt>
      <trkpt lat="43.78317" lon="4.24765">
        <ele>104.462</ele>
        <time>2009-12-13T09:01:23Z</time>
      </trkpt>
      <trkpt lat="43.78314" lon="4.248">
        <ele>103.794</ele>
        <time>2009-12-13T09:01:41Z</time>
      </trkpt>
      <trkpt lat="43.78303" lon="4.24798">
        <ele>104.01</ele>
        <time>2009-12-13T09:02:03Z</time>
      </trkpt>
      <trkpt lat="43.78292" lon="4.24808">
        <ele>101.933</ele>
        <time>2009-12-13T09:02:09Z</time>
      </trkpt>
      <trkpt lat="43.78299" lon="4.24836">
        <ele>100.688</ele>
        <time>2009-12-13T09:02:19Z</time>
      </trkpt>
      <trkpt lat="43.78332" lon="4.24821">
        <ele>102.254</ele>
        <time>2009-12-13T09:02:33Z</time>
      </trkpt>
      <trkpt lat="43.78359" lon="4.24766">
        <ele>105.382</ele>
        <time>2009-12-13T09:02:49Z</time>
      </trkpt>
      <trkpt lat="43.78389" lon="4.24724">
        <ele>106.784</ele>
        <time>2009-12-13T09:03:03Z</time>
      </trkpt>
      <trkpt lat="43.78436" lon="4.24662">
        <ele>103.454</ele>
        <time>2009-12-13T09:03:18Z</time>
      </trkpt>
      <trkpt lat="43.78444" lon="4.2465">
        <ele>102.595</ele>
        <time>2009-12-13T09:03:20Z</time>
      </trkpt>
      <trkpt lat="43.78516" lon="4.24606">
        <ele>103.102</ele>
        <time>2009-12-13T09:03:34Z</time>
      </trkpt>
      <trkpt lat="43.78616" lon="4.2456">
        <ele>102.375</ele>
        <time>2009-12-13T09:03:53Z</time>
      </trkpt>
      <trkpt lat="43.78693" lon="4.24516">
        <ele>104.985</ele>
        <time>2009-12-13T09:04:10Z</time>
      </trkpt>
      <trkpt lat="43.78726" lon="4.24504">
        <ele>105.028</ele>
        <time>2009-12-13T09:04:19Z</time>
      </trkpt>
      <trkpt lat="43.78739" lon="4.2453">
        <ele>103.778</ele>
        <time>2009-12-13T09:04:25Z</time>
      </trkpt>
      <trkpt lat="43.78743" lon="4.24559">
        <ele>102.273</ele>
        <time>2009-12-13T09:04:30Z</time>
      </trkpt>
      <trkpt lat="43.78744" lon="4.24575">
        <ele>100.853</ele>
        <time>2009-12-13T09:04:33Z</time>
      </trkpt>
      <trkpt lat="43.78717" lon="4.24634">
        <ele>97.271</ele>
        <time>2009-12-13T09:04:45Z</time>
      </trkpt>
      <trkpt lat="43.78694" lon="4.24666">
        <ele>96.678</ele>
        <time>2009-12-13T09:04:53Z</time>
      </trkpt>
      <trkpt lat="43.78677" lon="4.24696">
        <ele>95.863</ele>
        <time>2009-12-13T09:05:01Z</time>
      </trkpt>
      <trkpt lat="43.78671" lon="4.2471">
        <ele>96.412</ele>
        <time>2009-12-13T09:05:04Z</time>
      </trkpt>
      <trkpt lat="43.78664" lon="4.24732">
        <ele>96.779</ele>
        <time>2009-12-13T09:05:14Z</time>
      </trkpt>
      <trkpt lat="43.7869" lon="4.24741">
        <ele>98.064</ele>
        <time>2009-12-13T09:05:23Z</time>
      </trkpt>
      <trkpt lat="43.78707" lon="4.24716">
        <ele>97.921</ele>
        <time>2009-12-13T09:05:30Z</time>
      </trkpt>
      <trkpt lat="43.78715" lon="4.24708">
        <ele>98.142</ele>
        <time>2009-12-13T09:05:34Z</time>
      </trkpt>
      <trkpt lat="43.78731" lon="4.24684">
        <ele>98.632</ele>
        <time>2009-12-13T09:05:43Z</time>
      </trkpt>
      <trkpt lat="43.78747" lon="4.24676">
        <ele>100.13</ele>
        <time>2009-12-13T09:05:50Z</time>
      </trkpt>
      <trkpt lat="43.78776" lon="4.24633">
        <ele>99.306</ele>
        <time>2009-12-13T09:06:01Z</time>
      </trkpt>
      <trkpt lat="43.78784" lon="4.24625">
        <ele>100.492</ele>
        <time>2009-12-13T09:06:03Z</time>
      </trkpt>
      <trkpt lat="43.78804" lon="4.2461">
        <ele>99.843</ele>
        <time>2009-12-13T09:06:08Z</time>
      </trkpt>
      <trkpt lat="43.78832" lon="4.24576">
        <ele>100.569</ele>
        <time>2009-12-13T09:06:17Z</time>
      </trkpt>
      <trkpt lat="43.78842" lon="4.2458">
        <ele>101.304</ele>
        <time>2009-12-13T09:06:26Z</time>
      </trkpt>
      <trkpt lat="43.7885" lon="4.24587">
        <ele>101.514</ele>
        <time>2009-12-13T09:06:29Z</time>
      </trkpt>
      <trkpt lat="43.78863" lon="4.2459">
        <ele>102.033</ele>
        <time>2009-12-13T09:06:33Z</time>
      </trkpt>
      <trkpt lat="43.78894" lon="4.2459">
        <ele>103.134</ele>
        <time>2009-12-13T09:06:42Z</time>
      </trkpt>
      <trkpt lat="43.7892" lon="4.24596">
        <ele>104.374</ele>
        <time>2009-12-13T09:06:51Z</time>
      </trkpt>
      <trkpt lat="43.78935" lon="4.24601">
        <ele>105.185</ele>
        <time>2009-12-13T09:06:57Z</time>
      </trkpt>
      <trkpt lat="43.78957" lon="4.24589">
        <ele>107.025</ele>
        <time>2009-12-13T09:07:09Z</time>
      </trkpt>
      <trkpt lat="43.78968" lon="4.24585">
        <ele>108.158</ele>
        <time>2009-12-13T09:07:18Z</time>
      </trkpt>
      <trkpt lat="43.78982" lon="4.2458">
        <ele>108.961</ele>
        <time>2009-12-13T09:07:29Z</time>
      </trkpt>
      <trkpt lat="43.7901" lon="4.24575">
        <ele>110.401</ele>
        <time>2009-12-13T09:07:49Z</time>
      </trkpt>
      <trkpt lat="43.79035" lon="4.24582">
        <ele>111.693</ele>
        <time>2009-12-13T09:08:01Z</time>
      </trkpt>
      <trkpt lat="43.79053" lon="4.24588">
        <ele>112.397</ele>
        <time>2009-12-13T09:08:11Z</time>
      </trkpt>
      <trkpt lat="43.79041" lon="4.24599">
        <ele>111.162</ele>
        <time>2009-12-13T09:08:19Z</time>
      </trkpt>
      <trkpt lat="43.79032" lon="4.24605">
        <ele>110.191</ele>
        <time>2009-12-13T09:08:23Z</time>
      </trkpt>
      <trkpt lat="43.79029" lon="4.24621">
        <ele>109.412</ele>
        <time>2009-12-13T09:08:27Z</time>
      </trkpt>
      <trkpt lat="43.79022" lon="4.24629">
        <ele>109</ele>
        <time>2009-12-13T09:08:31Z</time>
      </trkpt>
      <trkpt lat="43.79008" lon="4.24656">
        <ele>108.026</ele>
        <time>2009-12-13T09:08:43Z</time>
      </trkpt>
      <trkpt lat="43.79005" lon="4.24669">
        <ele>107.87</ele>
        <time>2009-12-13T09:08:47Z</time>
      </trkpt>
      <trkpt lat="43.79003" lon="4.24686">
        <ele>107.829</ele>
        <time>2009-12-13T09:08:51Z</time>
      </trkpt>
      <trkpt lat="43.78993" lon="4.24689">
        <ele>108.079</ele>
        <time>2009-12-13T09:09:00Z</time>
      </trkpt>
      <trkpt lat="43.78971" lon="4.24713">
        <ele>108.204</ele>
        <time>2009-12-13T09:09:16Z</time>
      </trkpt>
      <trkpt lat="43.78968" lon="4.24733">
        <ele>107.774</ele>
        <time>2009-12-13T09:09:21Z</time>
      </trkpt>
      <trkpt lat="43.78976" lon="4.24752">
        <ele>107.209</ele>
        <time>2009-12-13T09:09:26Z</time>
      </trkpt>
      <trkpt lat="43.78966" lon="4.24761">
        <ele>107.18</ele>
        <time>2009-12-13T09:09:32Z</time>
      </trkpt>
      <trkpt lat="43.78948" lon="4.24783">
        <ele>104.994</ele>
        <time>2009-12-13T09:09:39Z</time>
      </trkpt>
      <trkpt lat="43.78939" lon="4.24803">
        <ele>102.896</ele>
        <time>2009-12-13T09:09:44Z</time>
      </trkpt>
      <trkpt lat="43.78942" lon="4.24829">
        <ele>99.974</ele>
        <time>2009-12-13T09:09:53Z</time>
      </trkpt>
      <trkpt lat="43.78944" lon="4.24846">
        <ele>97.361</ele>
        <time>2009-12-13T09:09:59Z</time>
      </trkpt>
      <trkpt lat="43.78935" lon="4.24852">
        <ele>96.371</ele>
        <time>2009-12-13T09:10:08Z</time>
      </trkpt>
      <trkpt lat="43.78925" lon="4.24854">
        <ele>96.086</ele>
        <time>2009-12-13T09:10:12Z</time>
      </trkpt>
      <trkpt lat="43.78901" lon="4.24851">
        <ele>96.199</ele>
        <time>2009-12-13T09:10:21Z</time>
      </trkpt>
      <trkpt lat="43.78884" lon="4.24844">
        <ele>95.362</ele>
        <time>2009-12-13T09:10:27Z</time>
      </trkpt>
      <trkpt lat="43.78866" lon="4.24839">
        <ele>94.695</ele>
        <time>2009-12-13T09:10:32Z</time>
      </trkpt>
      <trkpt lat="43.78843" lon="4.2484">
        <ele>94.677</ele>
        <time>2009-12-13T09:10:42Z</time>
      </trkpt>
      <trkpt lat="43.78839" lon="4.2487">
        <ele>92.905</ele>
        <time>2009-12-13T09:10:47Z</time>
      </trkpt>
      <trkpt lat="43.78835" lon="4.24931">
        <ele>96.241</ele>
        <time>2009-12-13T09:10:56Z</time>
      </trkpt>
      <trkpt lat="43.78828" lon="4.24997">
        <ele>100.564</ele>
        <time>2009-12-13T09:11:10Z</time>
      </trkpt>
      <trkpt lat="43.78809" lon="4.25087">
        <ele>98.252</ele>
        <time>2009-12-13T09:11:25Z</time>
      </trkpt>
      <trkpt lat="43.78804" lon="4.25129">
        <ele>96.381</ele>
        <time>2009-12-13T09:11:30Z</time>
      </trkpt>
      <trkpt lat="43.78786" lon="4.25159">
        <ele>95.981</ele>
        <time>2009-12-13T09:11:35Z</time>
      </trkpt>
      <trkpt lat="43.78775" lon="4.2519">
        <ele>95.958</ele>
        <time>2009-12-13T09:11:40Z</time>
      </trkpt>
      <trkpt lat="43.78766" lon="4.2521">
        <ele>96.051</ele>
        <time>2009-12-13T09:11:44Z</time>
      </trkpt>
      <trkpt lat="43.78762" lon="4.25224">
        <ele>96.776</ele>
        <time>2009-12-13T09:11:53Z</time>
      </trkpt>
      <trkpt lat="43.78764" lon="4.25235">
        <ele>96.954</ele>
        <time>2009-12-13T09:12:33Z</time>
      </trkpt>
      <trkpt lat="43.78772" lon="4.25241">
        <ele>96.335</ele>
        <time>2009-12-13T09:12:53Z</time>
      </trkpt>
      <trkpt lat="43.78772" lon="4.25242">
        <ele>97.586</ele>
        <time>2009-12-13T09:14:11Z</time>
      </trkpt>
      <trkpt lat="43.78766" lon="4.25243">
        <ele>97.364</ele>
        <time>2009-12-13T09:15:30Z</time>
      </trkpt>
      <trkpt lat="43.78772" lon="4.25239">
        <ele>98.029</ele>
        <time>2009-12-13T09:16:47Z</time>
      </trkpt>
      <trkpt lat="43.78768" lon="4.25246">
        <ele>98.345</ele>
        <time>2009-12-13T09:19:04Z</time>
      </trkpt>
      <trkpt lat="43.78762" lon="4.25228">
        <ele>97.454</ele>
        <time>2009-12-13T09:19:35Z</time>
      </trkpt>
      <trkpt lat="43.78764" lon="4.25234">
        <ele>98.065</ele>
        <time>2009-12-13T09:20:32Z</time>
      </trkpt>
      <trkpt lat="43.78764" lon="4.25247">
        <ele>98.2</ele>
        <time>2009-12-13T09:21:00Z</time>
      </trkpt>
      <trkpt lat="43.7877" lon="4.25258">
        <ele>98.715</ele>
        <time>2009-12-13T09:21:13Z</time>
      </trkpt>
      <trkpt lat="43.78774" lon="4.25275">
        <ele>98.52</ele>
        <time>2009-12-13T09:21:52Z</time>
      </trkpt>
      <trkpt lat="43.78776" lon="4.25288">
        <ele>98.243</ele>
        <time>2009-12-13T09:21:54Z</time>
      </trkpt>
      <trkpt lat="43.7878" lon="4.25317">
        <ele>97.935</ele>
        <time>2009-12-13T09:21:58Z</time>
      </trkpt>
      <trkpt lat="43.78781" lon="4.25338">
        <ele>97.144</ele>
        <time>2009-12-13T09:22:01Z</time>
      </trkpt>
      <trkpt lat="43.78798" lon="4.25344">
        <ele>97.014</ele>
        <time>2009-12-13T09:22:07Z</time>
      </trkpt>
      <trkpt lat="43.78814" lon="4.2534">
        <ele>97.886</ele>
        <time>2009-12-13T09:22:11Z</time>
      </trkpt>
      <trkpt lat="43.78894" lon="4.25302">
        <ele>97.893</ele>
        <time>2009-12-13T09:22:28Z</time>
      </trkpt>
      <trkpt lat="43.78955" lon="4.25276">
        <ele>100.301</ele>
        <time>2009-12-13T09:22:44Z</time>
      </trkpt>
      <trkpt lat="43.78974" lon="4.25267">
        <ele>101.608</ele>
        <time>2009-12-13T09:22:49Z</time>
      </trkpt>
      <trkpt lat="43.78996" lon="4.25221">
        <ele>105.403</ele>
        <time>2009-12-13T09:23:02Z</time>
      </trkpt>
      <trkpt lat="43.79017" lon="4.25168">
        <ele>105.694</ele>
        <time>2009-12-13T09:23:15Z</time>
      </trkpt>
      <trkpt lat="43.79047" lon="4.25122">
        <ele>107.584</ele>
        <time>2009-12-13T09:23:27Z</time>
      </trkpt>
      <trkpt lat="43.79086" lon="4.25052">
        <ele>108.965</ele>
        <time>2009-12-13T09:23:44Z</time>
      </trkpt>
      <trkpt lat="43.79119" lon="4.24986">
        <ele>114.082</ele>
        <time>2009-12-13T09:24:02Z</time>
      </trkpt>
      <trkpt lat="43.79137" lon="4.2495">
        <ele>114.8</ele>
        <time>2009-12-13T09:24:12Z</time>
      </trkpt>
      <trkpt lat="43.79171" lon="4.24889">
        <ele>114.141</ele>
        <time>2009-12-13T09:24:24Z</time>
      </trkpt>
      <trkpt lat="43.79181" lon="4.24877">
        <ele>114.619</ele>
        <time>2009-12-13T09:24:27Z</time>
      </trkpt>
      <trkpt lat="43.79197" lon="4.24849">
        <ele>115.231</ele>
        <time>2009-12-13T09:24:33Z</time>
      </trkpt>
      <trkpt lat="43.79201" lon="4.24831">
        <ele>115.082</ele>
        <time>2009-12-13T09:24:36Z</time>
      </trkpt>
      <trkpt lat="43.7921" lon="4.24809">
        <ele>114.884</ele>
        <time>2009-12-13T09:24:40Z</time>
      </trkpt>
      <trkpt lat="43.79246" lon="4.24765">
        <ele>116.22</ele>
        <time>2009-12-13T09:24:51Z</time>
      </trkpt>
      <trkpt lat="43.793" lon="4.24687">
        <ele>115.457</ele>
        <time>2009-12-13T09:25:08Z</time>
      </trkpt>
      <trkpt lat="43.79333" lon="4.24611">
        <ele>119.198</ele>
        <time>2009-12-13T09:25:23Z</time>
      </trkpt>
      <trkpt lat="43.79361" lon="4.24553">
        <ele>119.416</ele>
        <time>2009-12-13T09:25:35Z</time>
      </trkpt>
      <trkpt lat="43.79405" lon="4.24467">
        <ele>114.243</ele>
        <time>2009-12-13T09:25:50Z</time>
      </trkpt>
      <trkpt lat="43.79417" lon="4.24447">
        <ele>114.55</ele>
        <time>2009-12-13T09:25:54Z</time>
      </trkpt>
      <trkpt lat="43.79462" lon="4.24485">
        <ele>116.763</ele>
        <time>2009-12-13T09:26:15Z</time>
      </trkpt>
      <trkpt lat="43.79472" lon="4.24495">
        <ele>118.256</ele>
        <time>2009-12-13T09:26:20Z</time>
      </trkpt>
      <trkpt lat="43.79502" lon="4.24523">
        <ele>121.616</ele>
        <time>2009-12-13T09:26:36Z</time>
      </trkpt>
      <trkpt lat="43.79525" lon="4.24545">
        <ele>123.486</ele>
        <time>2009-12-13T09:26:47Z</time>
      </trkpt>
      <trkpt lat="43.79556" lon="4.24564">
        <ele>126.131</ele>
        <time>2009-12-13T09:27:00Z</time>
      </trkpt>
      <trkpt lat="43.79587" lon="4.24589">
        <ele>128.251</ele>
        <time>2009-12-13T09:27:14Z</time>
      </trkpt>
      <trkpt lat="43.79606" lon="4.24601">
        <ele>129.331</ele>
        <time>2009-12-13T09:27:23Z</time>
      </trkpt>
      <trkpt lat="43.79661" lon="4.24627">
        <ele>131.519</ele>
        <time>2009-12-13T09:27:44Z</time>
      </trkpt>
      <trkpt lat="43.79697" lon="4.24645">
        <ele>134.182</ele>
        <time>2009-12-13T09:27:58Z</time>
      </trkpt>
      <trkpt lat="43.79728" lon="4.24663">
        <ele>136.074</ele>
        <time>2009-12-13T09:28:11Z</time>
      </trkpt>
      <trkpt lat="43.79755" lon="4.24684">
        <ele>138.353</ele>
        <time>2009-12-13T09:28:24Z</time>
      </trkpt>
      <trkpt lat="43.79767" lon="4.24689">
        <ele>137.9</ele>
        <time>2009-12-13T09:28:28Z</time>
      </trkpt>
      <trkpt lat="43.79829" lon="4.24738">
        <ele>138.731</ele>
        <time>2009-12-13T09:28:48Z</time>
      </trkpt>
      <trkpt lat="43.7987" lon="4.24751">
        <ele>136.039</ele>
        <time>2009-12-13T09:28:57Z</time>
      </trkpt>
      <trkpt lat="43.7989" lon="4.24759">
        <ele>134.202</ele>
        <time>2009-12-13T09:29:00Z</time>
      </trkpt>
      <trkpt lat="43.79908" lon="4.24775">
        <ele>131.873</ele>
        <time>2009-12-13T09:29:05Z</time>
      </trkpt>
      <trkpt lat="43.79926" lon="4.24754">
        <ele>132.29</ele>
        <time>2009-12-13T09:29:11Z</time>
      </trkpt>
      <trkpt lat="43.79941" lon="4.24736">
        <ele>133.594</ele>
        <time>2009-12-13T09:29:16Z</time>
      </trkpt>
      <trkpt lat="43.79951" lon="4.24706">
        <ele>133.7</ele>
        <time>2009-12-13T09:29:22Z</time>
      </trkpt>
      <trkpt lat="43.79967" lon="4.24654">
        <ele>136.617</ele>
        <time>2009-12-13T09:29:34Z</time>
      </trkpt>
      <trkpt lat="43.7998" lon="4.246">
        <ele>143.231</ele>
        <time>2009-12-13T09:29:56Z</time>
      </trkpt>
      <trkpt lat="43.79984" lon="4.24589">
        <ele>145.028</ele>
        <time>2009-12-13T09:30:03Z</time>
      </trkpt>
      <trkpt lat="43.79972" lon="4.24582">
        <ele>145.635</ele>
        <time>2009-12-13T09:30:17Z</time>
      </trkpt>
      <trkpt lat="43.79971" lon="4.2456">
        <ele>146.824</ele>
        <time>2009-12-13T09:30:24Z</time>
      </trkpt>
      <trkpt lat="43.79986" lon="4.24557">
        <ele>147.875</ele>
        <time>2009-12-13T09:30:32Z</time>
      </trkpt>
      <trkpt lat="43.8" lon="4.24544">
        <ele>149.109</ele>
        <time>2009-12-13T09:30:38Z</time>
      </trkpt>
      <trkpt lat="43.80004" lon="4.24523">
        <ele>149.16</ele>
        <time>2009-12-13T09:30:44Z</time>
      </trkpt>
      <trkpt lat="43.80025" lon="4.24511">
        <ele>148.293</ele>
        <time>2009-12-13T09:30:52Z</time>
      </trkpt>
      <trkpt lat="43.80041" lon="4.24509">
        <ele>146.662</ele>
        <time>2009-12-13T09:30:56Z</time>
      </trkpt>
      <trkpt lat="43.80081" lon="4.24516">
        <ele>140.175</ele>
        <time>2009-12-13T09:31:05Z</time>
      </trkpt>
      <trkpt lat="43.80088" lon="4.24497">
        <ele>137.037</ele>
        <time>2009-12-13T09:31:16Z</time>
      </trkpt>
      <trkpt lat="43.80098" lon="4.24503">
        <ele>133.26</ele>
        <time>2009-12-13T09:31:23Z</time>
      </trkpt>
      <trkpt lat="43.80102" lon="4.24524">
        <ele>131.974</ele>
        <time>2009-12-13T09:31:27Z</time>
      </trkpt>
      <trkpt lat="43.80105" lon="4.24545">
        <ele>130.828</ele>
        <time>2009-12-13T09:31:31Z</time>
      </trkpt>
      <trkpt lat="43.80115" lon="4.24538">
        <ele>126.825</ele>
        <time>2009-12-13T09:31:36Z</time>
      </trkpt>
      <trkpt lat="43.80122" lon="4.24526">
        <ele>123.403</ele>
        <time>2009-12-13T09:31:41Z</time>
      </trkpt>
      <trkpt lat="43.8012" lon="4.24503">
        <ele>122.846</ele>
        <time>2009-12-13T09:31:47Z</time>
      </trkpt>
      <trkpt lat="43.80096" lon="4.24458">
        <ele>123.685</ele>
        <time>2009-12-13T09:31:56Z</time>
      </trkpt>
      <trkpt lat="43.80068" lon="4.24405">
        <ele>122.525</ele>
        <time>2009-12-13T09:32:05Z</time>
      </trkpt>
      <trkpt lat="43.80051" lon="4.24369">
        <ele>119.602</ele>
        <time>2009-12-13T09:32:10Z</time>
      </trkpt>
      <trkpt lat="43.80026" lon="4.24356">
        <ele>123.616</ele>
        <time>2009-12-13T09:32:17Z</time>
      </trkpt>
      <trkpt lat="43.79996" lon="4.24319">
        <ele>123.87</ele>
        <time>2009-12-13T09:32:31Z</time>
      </trkpt>
      <trkpt lat="43.79991" lon="4.2428">
        <ele>126.331</ele>
        <time>2009-12-13T09:32:42Z</time>
      </trkpt>
      <trkpt lat="43.7999" lon="4.24247">
        <ele>129.021</ele>
        <time>2009-12-13T09:32:55Z</time>
      </trkpt>
      <trkpt lat="43.79989" lon="4.24213">
        <ele>132.526</ele>
        <time>2009-12-13T09:33:09Z</time>
      </trkpt>
      <trkpt lat="43.79989" lon="4.24186">
        <ele>134.486</ele>
        <time>2009-12-13T09:33:21Z</time>
      </trkpt>
      <trkpt lat="43.79989" lon="4.24155">
        <ele>137.048</ele>
        <time>2009-12-13T09:33:35Z</time>
      </trkpt>
      <trkpt lat="43.79988" lon="4.24136">
        <ele>138.435</ele>
        <time>2009-12-13T09:33:46Z</time>
      </trkpt>
      <trkpt lat="43.79982" lon="4.24123">
        <ele>139.838</ele>
        <time>2009-12-13T09:33:52Z</time>
      </trkpt>
      <trkpt lat="43.79971" lon="4.241">
        <ele>140.997</ele>
        <time>2009-12-13T09:34:00Z</time>
      </trkpt>
      <trkpt lat="43.79966" lon="4.24082">
        <ele>139.848</ele>
        <time>2009-12-13T09:34:05Z</time>
      </trkpt>
      <trkpt lat="43.79951" lon="4.24036">
        <ele>137.378</ele>
        <time>2009-12-13T09:34:15Z</time>
      </trkpt>
      <trkpt lat="43.79967" lon="4.24026">
        <ele>138.433</ele>
        <time>2009-12-13T09:34:21Z</time>
      </trkpt>
      <trkpt lat="43.79986" lon="4.2397">
        <ele>139.928</ele>
        <time>2009-12-13T09:34:37Z</time>
      </trkpt>
      <trkpt lat="43.79987" lon="4.23924">
        <ele>141.037</ele>
        <time>2009-12-13T09:34:50Z</time>
      </trkpt>
      <trkpt lat="43.79991" lon="4.23905">
        <ele>143.376</ele>
        <time>2009-12-13T09:34:56Z</time>
      </trkpt>
      <trkpt lat="43.79988" lon="4.23876">
        <ele>144.725</ele>
        <time>2009-12-13T09:35:04Z</time>
      </trkpt>
      <trkpt lat="43.79992" lon="4.2383">
        <ele>145.744</ele>
        <time>2009-12-13T09:35:18Z</time>
      </trkpt>
      <trkpt lat="43.79992" lon="4.23809">
        <ele>147.605</ele>
        <time>2009-12-13T09:35:25Z</time>
      </trkpt>
      <trkpt lat="43.79993" lon="4.23787">
        <ele>148.97</ele>
        <time>2009-12-13T09:35:40Z</time>
      </trkpt>
      <trkpt lat="43.79998" lon="4.23758">
        <ele>151.53</ele>
        <time>2009-12-13T09:35:50Z</time>
      </trkpt>
      <trkpt lat="43.79979" lon="4.23749">
        <ele>152.095</ele>
        <time>2009-12-13T09:36:04Z</time>
      </trkpt>
      <trkpt lat="43.79957" lon="4.23746">
        <ele>153.319</ele>
        <time>2009-12-13T09:36:14Z</time>
      </trkpt>
      <trkpt lat="43.79947" lon="4.2375">
        <ele>153.443</ele>
        <time>2009-12-13T09:36:18Z</time>
      </trkpt>
      <trkpt lat="43.79937" lon="4.23747">
        <ele>154.225</ele>
        <time>2009-12-13T09:36:22Z</time>
      </trkpt>
      <trkpt lat="43.79921" lon="4.23751">
        <ele>154.773</ele>
        <time>2009-12-13T09:36:28Z</time>
      </trkpt>
      <trkpt lat="43.79917" lon="4.23739">
        <ele>155.899</ele>
        <time>2009-12-13T09:36:34Z</time>
      </trkpt>
      <trkpt lat="43.79941" lon="4.2371">
        <ele>157.279</ele>
        <time>2009-12-13T09:36:47Z</time>
      </trkpt>
      <trkpt lat="43.79959" lon="4.2367">
        <ele>159.63</ele>
        <time>2009-12-13T09:37:01Z</time>
      </trkpt>
      <trkpt lat="43.79962" lon="4.23656">
        <ele>160.849</ele>
        <time>2009-12-13T09:37:06Z</time>
      </trkpt>
      <trkpt lat="43.79945" lon="4.23627">
        <ele>162.797</ele>
        <time>2009-12-13T09:37:18Z</time>
      </trkpt>
      <trkpt lat="43.79947" lon="4.2361">
        <ele>163.946</ele>
        <time>2009-12-13T09:37:25Z</time>
      </trkpt>
      <trkpt lat="43.79925" lon="4.23609">
        <ele>162.717</ele>
        <time>2009-12-13T09:37:34Z</time>
      </trkpt>
      <trkpt lat="43.79917" lon="4.23602">
        <ele>162.622</ele>
        <time>2009-12-13T09:37:37Z</time>
      </trkpt>
      <trkpt lat="43.79913" lon="4.23591">
        <ele>162.962</ele>
        <time>2009-12-13T09:37:41Z</time>
      </trkpt>
      <trkpt lat="43.79908" lon="4.23571">
        <ele>163.858</ele>
        <time>2009-12-13T09:37:50Z</time>
      </trkpt>
      <trkpt lat="43.799" lon="4.23561">
        <ele>163.812</ele>
        <time>2009-12-13T09:37:54Z</time>
      </trkpt>
      <trkpt lat="43.7988" lon="4.23557">
        <ele>162.542</ele>
        <time>2009-12-13T09:38:02Z</time>
      </trkpt>
      <trkpt lat="43.79875" lon="4.23544">
        <ele>162.982</ele>
        <time>2009-12-13T09:38:06Z</time>
      </trkpt>
      <trkpt lat="43.7987" lon="4.2351">
        <ele>165.001</ele>
        <time>2009-12-13T09:38:18Z</time>
      </trkpt>
      <trkpt lat="43.79884" lon="4.23497">
        <ele>167.017</ele>
        <time>2009-12-13T09:38:26Z</time>
      </trkpt>
      <trkpt lat="43.7989" lon="4.23482">
        <ele>167.624</ele>
        <time>2009-12-13T09:38:32Z</time>
      </trkpt>
      <trkpt lat="43.79902" lon="4.23463">
        <ele>168.174</ele>
        <time>2009-12-13T09:38:39Z</time>
      </trkpt>
      <trkpt lat="43.79909" lon="4.23418">
        <ele>167.354</ele>
        <time>2009-12-13T09:38:50Z</time>
      </trkpt>
      <trkpt lat="43.79921" lon="4.234">
        <ele>166.616</ele>
        <time>2009-12-13T09:38:57Z</time>
      </trkpt>
      <trkpt lat="43.79928" lon="4.23382">
        <ele>166.613</ele>
        <time>2009-12-13T09:39:02Z</time>
      </trkpt>
      <trkpt lat="43.79942" lon="4.23382">
        <ele>167.872</ele>
        <time>2009-12-13T09:39:07Z</time>
      </trkpt>
      <trkpt lat="43.79959" lon="4.23386">
        <ele>169.392</ele>
        <time>2009-12-13T09:39:15Z</time>
      </trkpt>
      <trkpt lat="43.79981" lon="4.23403">
        <ele>171.65</ele>
        <time>2009-12-13T09:39:25Z</time>
      </trkpt>
      <trkpt lat="43.79992" lon="4.2341">
        <ele>172.167</ele>
        <time>2009-12-13T09:39:30Z</time>
      </trkpt>
      <trkpt lat="43.80015" lon="4.23408">
        <ele>173.952</ele>
        <time>2009-12-13T09:39:39Z</time>
      </trkpt>
      <trkpt lat="43.80031" lon="4.23378">
        <ele>175</ele>
        <time>2009-12-13T09:39:52Z</time>
      </trkpt>
      <trkpt lat="43.80039" lon="4.23368">
        <ele>175.504</ele>
        <time>2009-12-13T09:39:57Z</time>
      </trkpt>
      <trkpt lat="43.80051" lon="4.23358">
        <ele>175.786</ele>
        <time>2009-12-13T09:40:02Z</time>
      </trkpt>
      <trkpt lat="43.80059" lon="4.23368">
        <ele>176.798</ele>
        <time>2009-12-13T09:40:07Z</time>
      </trkpt>
      <trkpt lat="43.80065" lon="4.23387">
        <ele>177.593</ele>
        <time>2009-12-13T09:40:16Z</time>
      </trkpt>
      <trkpt lat="43.80062" lon="4.234">
        <ele>176.193</ele>
        <time>2009-12-13T09:40:23Z</time>
      </trkpt>
      <trkpt lat="43.80079" lon="4.23436">
        <ele>177.471</ele>
        <time>2009-12-13T09:40:36Z</time>
      </trkpt>
      <trkpt lat="43.80102" lon="4.23464">
        <ele>176.243</ele>
        <time>2009-12-13T09:40:47Z</time>
      </trkpt>
      <trkpt lat="43.8011" lon="4.23483">
        <ele>176.228</ele>
        <time>2009-12-13T09:40:52Z</time>
      </trkpt>
      <trkpt lat="43.80111" lon="4.23495">
        <ele>174.79</ele>
        <time>2009-12-13T09:40:54Z</time>
      </trkpt>
      <trkpt lat="43.80115" lon="4.23506">
        <ele>173.981</ele>
        <time>2009-12-13T09:40:56Z</time>
      </trkpt>
      <trkpt lat="43.80129" lon="4.23526">
        <ele>172.459</ele>
        <time>2009-12-13T09:41:01Z</time>
      </trkpt>
      <trkpt lat="43.80138" lon="4.23551">
        <ele>171.863</ele>
        <time>2009-12-13T09:41:07Z</time>
      </trkpt>
      <trkpt lat="43.80145" lon="4.23578">
        <ele>169.05</ele>
        <time>2009-12-13T09:41:22Z</time>
      </trkpt>
      <trkpt lat="43.80128" lon="4.23585">
        <ele>169.294</ele>
        <time>2009-12-13T09:41:30Z</time>
      </trkpt>
      <trkpt lat="43.80114" lon="4.2359">
        <ele>168.459</ele>
        <time>2009-12-13T09:41:41Z</time>
      </trkpt>
      <trkpt lat="43.8012" lon="4.23605">
        <ele>167.852</ele>
        <time>2009-12-13T09:41:45Z</time>
      </trkpt>
      <trkpt lat="43.80116" lon="4.23618">
        <ele>166.841</ele>
        <time>2009-12-13T09:41:49Z</time>
      </trkpt>
      <trkpt lat="43.80119" lon="4.23645">
        <ele>165.655</ele>
        <time>2009-12-13T09:41:59Z</time>
      </trkpt>
      <trkpt lat="43.80107" lon="4.23674">
        <ele>164.322</ele>
        <time>2009-12-13T09:42:07Z</time>
      </trkpt>
      <trkpt lat="43.80086" lon="4.23666">
        <ele>164.03</ele>
        <time>2009-12-13T09:42:15Z</time>
      </trkpt>
      <trkpt lat="43.8007" lon="4.23681">
        <ele>162.914</ele>
        <time>2009-12-13T09:42:21Z</time>
      </trkpt>
      <trkpt lat="43.80084" lon="4.23706">
        <ele>162.586</ele>
        <time>2009-12-13T09:42:29Z</time>
      </trkpt>
      <trkpt lat="43.80103" lon="4.23726">
        <ele>161.426</ele>
        <time>2009-12-13T09:42:37Z</time>
      </trkpt>
      <trkpt lat="43.8012" lon="4.2373">
        <ele>160.557</ele>
        <time>2009-12-13T09:42:42Z</time>
      </trkpt>
      <trkpt lat="43.80131" lon="4.23737">
        <ele>160.064</ele>
        <time>2009-12-13T09:42:45Z</time>
      </trkpt>
      <trkpt lat="43.8015" lon="4.23745">
        <ele>159.108</ele>
        <time>2009-12-13T09:42:52Z</time>
      </trkpt>
      <trkpt lat="43.80165" lon="4.23749">
        <ele>159.185</ele>
        <time>2009-12-13T09:42:57Z</time>
      </trkpt>
      <trkpt lat="43.80172" lon="4.2374">
        <ele>159.886</ele>
        <time>2009-12-13T09:43:00Z</time>
      </trkpt>
      <trkpt lat="43.80191" lon="4.23754">
        <ele>161.827</ele>
        <time>2009-12-13T09:43:09Z</time>
      </trkpt>
      <trkpt lat="43.80186" lon="4.23766">
        <ele>160.639</ele>
        <time>2009-12-13T09:43:12Z</time>
      </trkpt>
      <trkpt lat="43.80167" lon="4.23788">
        <ele>157.268</ele>
        <time>2009-12-13T09:43:17Z</time>
      </trkpt>
      <trkpt lat="43.80152" lon="4.23837">
        <ele>150.648</ele>
        <time>2009-12-13T09:43:27Z</time>
      </trkpt>
      <trkpt lat="43.80138" lon="4.2387">
        <ele>146.541</ele>
        <time>2009-12-13T09:43:32Z</time>
      </trkpt>
      <trkpt lat="43.80131" lon="4.23916">
        <ele>142.605</ele>
        <time>2009-12-13T09:43:38Z</time>
      </trkpt>
      <trkpt lat="43.8013" lon="4.2395">
        <ele>143.031</ele>
        <time>2009-12-13T09:43:42Z</time>
      </trkpt>
      <trkpt lat="43.80127" lon="4.23974">
        <ele>145.554</ele>
        <time>2009-12-13T09:43:46Z</time>
      </trkpt>
      <trkpt lat="43.80138" lon="4.23994">
        <ele>144.686</ele>
        <time>2009-12-13T09:43:53Z</time>
      </trkpt>
      <trkpt lat="43.80152" lon="4.24008">
        <ele>142.037</ele>
        <time>2009-12-13T09:43:57Z</time>
      </trkpt>
      <trkpt lat="43.80162" lon="4.23991">
        <ele>137.926</ele>
        <time>2009-12-13T09:44:03Z</time>
      </trkpt>
      <trkpt lat="43.8015" lon="4.23953">
        <ele>139.633</ele>
        <time>2009-12-13T09:44:11Z</time>
      </trkpt>
      <trkpt lat="43.80153" lon="4.23901">
        <ele>140.129</ele>
        <time>2009-12-13T09:44:22Z</time>
      </trkpt>
      <trkpt lat="43.80163" lon="4.23886">
        <ele>137.734</ele>
        <time>2009-12-13T09:44:27Z</time>
      </trkpt>
      <trkpt lat="43.80178" lon="4.23886">
        <ele>134.384</ele>
        <time>2009-12-13T09:44:32Z</time>
      </trkpt>
      <trkpt lat="43.80196" lon="4.23892">
        <ele>132.764</ele>
        <time>2009-12-13T09:44:37Z</time>
      </trkpt>
      <trkpt lat="43.80215" lon="4.23902">
        <ele>131.221</ele>
        <time>2009-12-13T09:44:44Z</time>
      </trkpt>
      <trkpt lat="43.80234" lon="4.23939">
        <ele>122.681</ele>
        <time>2009-12-13T09:44:54Z</time>
      </trkpt>
      <trkpt lat="43.8025" lon="4.23951">
        <ele>118.704</ele>
        <time>2009-12-13T09:44:58Z</time>
      </trkpt>
      <trkpt lat="43.80275" lon="4.2397">
        <ele>113.812</ele>
        <time>2009-12-13T09:45:06Z</time>
      </trkpt>
      <trkpt lat="43.80288" lon="4.23972">
        <ele>109.384</ele>
        <time>2009-12-13T09:45:10Z</time>
      </trkpt>
      <trkpt lat="43.80297" lon="4.23993">
        <ele>109.117</ele>
        <time>2009-12-13T09:45:15Z</time>
      </trkpt>
      <trkpt lat="43.8028" lon="4.23996">
        <ele>109.253</ele>
        <time>2009-12-13T09:45:23Z</time>
      </trkpt>
      <trkpt lat="43.80251" lon="4.23977">
        <ele>110.738</ele>
        <time>2009-12-13T09:45:36Z</time>
      </trkpt>
      <trkpt lat="43.80231" lon="4.23963">
        <ele>113.41</ele>
        <time>2009-12-13T09:45:44Z</time>
      </trkpt>
      <trkpt lat="43.80219" lon="4.23969">
        <ele>113.051</ele>
        <time>2009-12-13T09:45:51Z</time>
      </trkpt>
      <trkpt lat="43.80201" lon="4.23962">
        <ele>114.435</ele>
        <time>2009-12-13T09:46:17Z</time>
      </trkpt>
      <trkpt lat="43.8019" lon="4.23965">
        <ele>116.562</ele>
        <time>2009-12-13T09:46:27Z</time>
      </trkpt>
      <trkpt lat="43.80197" lon="4.23978">
        <ele>116.51</ele>
        <time>2009-12-13T09:46:52Z</time>
      </trkpt>
      <trkpt lat="43.80205" lon="4.23998">
        <ele>117.162</ele>
        <time>2009-12-13T09:47:01Z</time>
      </trkpt>
      <trkpt lat="43.80221" lon="4.2402">
        <ele>115.964</ele>
        <time>2009-12-13T09:47:13Z</time>
      </trkpt>
      <trkpt lat="43.80225" lon="4.24039">
        <ele>114.676</ele>
        <time>2009-12-13T09:47:17Z</time>
      </trkpt>
      <trkpt lat="43.80213" lon="4.24086">
        <ele>110.083</ele>
        <time>2009-12-13T09:47:25Z</time>
      </trkpt>
      <trkpt lat="43.80202" lon="4.24104">
        <ele>105.712</ele>
        <time>2009-12-13T09:47:31Z</time>
      </trkpt>
      <trkpt lat="43.80194" lon="4.24122">
        <ele>103.568</ele>
        <time>2009-12-13T09:47:35Z</time>
      </trkpt>
      <trkpt lat="43.80187" lon="4.24139">
        <ele>100.991</ele>
        <time>2009-12-13T09:47:41Z</time>
      </trkpt>
      <trkpt lat="43.80182" lon="4.24162">
        <ele>97.95</ele>
        <time>2009-12-13T09:47:45Z</time>
      </trkpt>
      <trkpt lat="43.80157" lon="4.24175">
        <ele>99.606</ele>
        <time>2009-12-13T09:47:52Z</time>
      </trkpt>
      <trkpt lat="43.80143" lon="4.24191">
        <ele>99.478</ele>
        <time>2009-12-13T09:48:01Z</time>
      </trkpt>
      <trkpt lat="43.80134" lon="4.24199">
        <ele>98.705</ele>
        <time>2009-12-13T09:48:27Z</time>
      </trkpt>
      <trkpt lat="43.80124" lon="4.24199">
        <ele>96.614</ele>
        <time>2009-12-13T09:48:54Z</time>
      </trkpt>
      <trkpt lat="43.8011" lon="4.24217">
        <ele>96.301</ele>
        <time>2009-12-13T09:49:02Z</time>
      </trkpt>
      <trkpt lat="43.80097" lon="4.24225">
        <ele>99.588</ele>
        <time>2009-12-13T09:49:11Z</time>
      </trkpt>
      <trkpt lat="43.80098" lon="4.24256">
        <ele>99.389</ele>
        <time>2009-12-13T09:49:17Z</time>
      </trkpt>
      <trkpt lat="43.80084" lon="4.24277">
        <ele>99.75</ele>
        <time>2009-12-13T09:49:23Z</time>
      </trkpt>
      <trkpt lat="43.80069" lon="4.24279">
        <ele>99.456</ele>
        <time>2009-12-13T09:49:30Z</time>
      </trkpt>
      <trkpt lat="43.80067" lon="4.24295">
        <ele>101.678</ele>
        <time>2009-12-13T09:49:40Z</time>
      </trkpt>
      <trkpt lat="43.80075" lon="4.24312">
        <ele>104.666</ele>
        <time>2009-12-13T09:49:49Z</time>
      </trkpt>
      <trkpt lat="43.80086" lon="4.24332">
        <ele>105.567</ele>
        <time>2009-12-13T09:49:59Z</time>
      </trkpt>
      <trkpt lat="43.80096" lon="4.24354">
        <ele>105.697</ele>
        <time>2009-12-13T09:50:08Z</time>
      </trkpt>
      <trkpt lat="43.80114" lon="4.24398">
        <ele>105.312</ele>
        <time>2009-12-13T09:50:19Z</time>
      </trkpt>
      <trkpt lat="43.80131" lon="4.24439">
        <ele>105.728</ele>
        <time>2009-12-13T09:50:30Z</time>
      </trkpt>
      <trkpt lat="43.80141" lon="4.24469">
        <ele>105.815</ele>
        <time>2009-12-13T09:50:37Z</time>
      </trkpt>
      <trkpt lat="43.80159" lon="4.2454">
        <ele>103.251</ele>
        <time>2009-12-13T09:50:50Z</time>
      </trkpt>
      <trkpt lat="43.80162" lon="4.24564">
        <ele>102.881</ele>
        <time>2009-12-13T09:50:54Z</time>
      </trkpt>
      <trkpt lat="43.80165" lon="4.24614">
        <ele>98.864</ele>
        <time>2009-12-13T09:51:00Z</time>
      </trkpt>
      <trkpt lat="43.80161" lon="4.24647">
        <ele>97.018</ele>
        <time>2009-12-13T09:51:04Z</time>
      </trkpt>
      <trkpt lat="43.80155" lon="4.24657">
        <ele>98.205</ele>
        <time>2009-12-13T09:51:06Z</time>
      </trkpt>
      <trkpt lat="43.80139" lon="4.2466">
        <ele>101.327</ele>
        <time>2009-12-13T09:51:13Z</time>
      </trkpt>
      <trkpt lat="43.80118" lon="4.2466">
        <ele>103.442</ele>
        <time>2009-12-13T09:51:24Z</time>
      </trkpt>
      <trkpt lat="43.80102" lon="4.2466">
        <ele>103.602</ele>
        <time>2009-12-13T09:51:34Z</time>
      </trkpt>
      <trkpt lat="43.80088" lon="4.24699">
        <ele>100.299</ele>
        <time>2009-12-13T09:51:57Z</time>
      </trkpt>
      <trkpt lat="43.80075" lon="4.2472">
        <ele>100.437</ele>
        <time>2009-12-13T09:52:02Z</time>
      </trkpt>
      <trkpt lat="43.8006" lon="4.24734">
        <ele>101.666</ele>
        <time>2009-12-13T09:52:07Z</time>
      </trkpt>
      <trkpt lat="43.80057" lon="4.24754">
        <ele>102.013</ele>
        <time>2009-12-13T09:52:11Z</time>
      </trkpt>
      <trkpt lat="43.80057" lon="4.24802">
        <ele>102.022</ele>
        <time>2009-12-13T09:52:20Z</time>
      </trkpt>
      <trkpt lat="43.80059" lon="4.24817">
        <ele>102.85</ele>
        <time>2009-12-13T09:52:23Z</time>
      </trkpt>
      <trkpt lat="43.80064" lon="4.24846">
        <ele>103.508</ele>
        <time>2009-12-13T09:52:32Z</time>
      </trkpt>
      <trkpt lat="43.8008" lon="4.24854">
        <ele>104.97</ele>
        <time>2009-12-13T09:52:37Z</time>
      </trkpt>
      <trkpt lat="43.80077" lon="4.24865">
        <ele>106.275</ele>
        <time>2009-12-13T09:52:42Z</time>
      </trkpt>
      <trkpt lat="43.80058" lon="4.24892">
        <ele>109.594</ele>
        <time>2009-12-13T09:52:54Z</time>
      </trkpt>
      <trkpt lat="43.80049" lon="4.24901">
        <ele>110.525</ele>
        <time>2009-12-13T09:52:59Z</time>
      </trkpt>
      <trkpt lat="43.80032" lon="4.24904">
        <ele>111.596</ele>
        <time>2009-12-13T09:53:14Z</time>
      </trkpt>
      <trkpt lat="43.80026" lon="4.24916">
        <ele>113.645</ele>
        <time>2009-12-13T09:53:39Z</time>
      </trkpt>
      <trkpt lat="43.80038" lon="4.2493">
        <ele>117.35</ele>
        <time>2009-12-13T09:54:00Z</time>
      </trkpt>
      <trkpt lat="43.80053" lon="4.24939">
        <ele>120.12</ele>
        <time>2009-12-13T09:54:24Z</time>
      </trkpt>
      <trkpt lat="43.8005" lon="4.24954">
        <ele>122.64</ele>
        <time>2009-12-13T09:54:37Z</time>
      </trkpt>
      <trkpt lat="43.80021" lon="4.24957">
        <ele>122.767</ele>
        <time>2009-12-13T09:54:49Z</time>
      </trkpt>
      <trkpt lat="43.79984" lon="4.24943">
        <ele>123.555</ele>
        <time>2009-12-13T09:55:01Z</time>
      </trkpt>
      <trkpt lat="43.79962" lon="4.24942">
        <ele>125.017</ele>
        <time>2009-12-13T09:55:11Z</time>
      </trkpt>
      <trkpt lat="43.7995" lon="4.24973">
        <ele>124.218</ele>
        <time>2009-12-13T09:55:19Z</time>
      </trkpt>
      <trkpt lat="43.79932" lon="4.24983">
        <ele>123.665</ele>
        <time>2009-12-13T09:55:23Z</time>
      </trkpt>
      <trkpt lat="43.79923" lon="4.24989">
        <ele>123.084</ele>
        <time>2009-12-13T09:55:25Z</time>
      </trkpt>
      <trkpt lat="43.79839" lon="4.25036">
        <ele>120.433</ele>
        <time>2009-12-13T09:55:41Z</time>
      </trkpt>
      <trkpt lat="43.79771" lon="4.2508">
        <ele>119.515</ele>
        <time>2009-12-13T09:55:54Z</time>
      </trkpt>
      <trkpt lat="43.7975" lon="4.25096">
        <ele>118.549</ele>
        <time>2009-12-13T09:55:58Z</time>
      </trkpt>
      <trkpt lat="43.79732" lon="4.25101">
        <ele>118.541</ele>
        <time>2009-12-13T09:56:01Z</time>
      </trkpt>
      <trkpt lat="43.79709" lon="4.25096">
        <ele>118.414</ele>
        <time>2009-12-13T09:56:05Z</time>
      </trkpt>
      <trkpt lat="43.79674" lon="4.25097">
        <ele>117.834</ele>
        <time>2009-12-13T09:56:11Z</time>
      </trkpt>
      <trkpt lat="43.7962" lon="4.2513">
        <ele>116.646</ele>
        <time>2009-12-13T09:56:22Z</time>
      </trkpt>
      <trkpt lat="43.79598" lon="4.25156">
        <ele>116.078</ele>
        <time>2009-12-13T09:56:27Z</time>
      </trkpt>
      <trkpt lat="43.79593" lon="4.2517">
        <ele>115.982</ele>
        <time>2009-12-13T09:56:29Z</time>
      </trkpt>
      <trkpt lat="43.79577" lon="4.25189">
        <ele>115.122</ele>
        <time>2009-12-13T09:56:33Z</time>
      </trkpt>
      <trkpt lat="43.79481" lon="4.25245">
        <ele>111.031</ele>
        <time>2009-12-13T09:56:50Z</time>
      </trkpt>
      <trkpt lat="43.79447" lon="4.25236">
        <ele>108.086</ele>
        <time>2009-12-13T09:56:56Z</time>
      </trkpt>
      <trkpt lat="43.79424" lon="4.25219">
        <ele>106.03</ele>
        <time>2009-12-13T09:57:00Z</time>
      </trkpt>
      <trkpt lat="43.79412" lon="4.2521">
        <ele>105.248</ele>
        <time>2009-12-13T09:57:02Z</time>
      </trkpt>
      <trkpt lat="43.7938" lon="4.25199">
        <ele>103.024</ele>
        <time>2009-12-13T09:57:08Z</time>
      </trkpt>
      <trkpt lat="43.79336" lon="4.25226">
        <ele>99.225</ele>
        <time>2009-12-13T09:57:17Z</time>
      </trkpt>
      <trkpt lat="43.79327" lon="4.25235">
        <ele>98.494</ele>
        <time>2009-12-13T09:57:20Z</time>
      </trkpt>
      <trkpt lat="43.7931" lon="4.25244">
        <ele>97.224</ele>
        <time>2009-12-13T09:57:25Z</time>
      </trkpt>
      <trkpt lat="43.79286" lon="4.25253">
        <ele>95.86</ele>
        <time>2009-12-13T09:57:31Z</time>
      </trkpt>
      <trkpt lat="43.79265" lon="4.25256">
        <ele>95.318</ele>
        <time>2009-12-13T09:57:36Z</time>
      </trkpt>
      <trkpt lat="43.79227" lon="4.2525">
        <ele>93.732</ele>
        <time>2009-12-13T09:57:46Z</time>
      </trkpt>
      <trkpt lat="43.79199" lon="4.25251">
        <ele>92.776</ele>
        <time>2009-12-13T09:57:52Z</time>
      </trkpt>
      <trkpt lat="43.79166" lon="4.25251">
        <ele>91.62</ele>
        <time>2009-12-13T09:58:00Z</time>
      </trkpt>
      <trkpt lat="43.7914" lon="4.25259">
        <ele>90.749</ele>
        <time>2009-12-13T09:58:06Z</time>
      </trkpt>
      <trkpt lat="43.79117" lon="4.25273">
        <ele>90.279</ele>
        <time>2009-12-13T09:58:12Z</time>
      </trkpt>
      <trkpt lat="43.7909" lon="4.25294">
        <ele>89.288</ele>
        <time>2009-12-13T09:58:20Z</time>
      </trkpt>
      <trkpt lat="43.79082" lon="4.2531">
        <ele>88.153</ele>
        <time>2009-12-13T09:58:23Z</time>
      </trkpt>
      <trkpt lat="43.79065" lon="4.2534">
        <ele>87.862</ele>
        <time>2009-12-13T09:58:29Z</time>
      </trkpt>
      <trkpt lat="43.79048" lon="4.25357">
        <ele>87.292</ele>
        <time>2009-12-13T09:58:34Z</time>
      </trkpt>
      <trkpt lat="43.79038" lon="4.2537">
        <ele>86.297</ele>
        <time>2009-12-13T09:58:37Z</time>
      </trkpt>
      <trkpt lat="43.79026" lon="4.25384">
        <ele>85.763</ele>
        <time>2009-12-13T09:58:40Z</time>
      </trkpt>
      <trkpt lat="43.79" lon="4.25404">
        <ele>85.031</ele>
        <time>2009-12-13T09:58:46Z</time>
      </trkpt>
      <trkpt lat="43.78976" lon="4.25407">
        <ele>84.653</ele>
        <time>2009-12-13T09:58:53Z</time>
      </trkpt>
      <trkpt lat="43.78962" lon="4.25414">
        <ele>84.515</ele>
        <time>2009-12-13T09:58:57Z</time>
      </trkpt>
      <trkpt lat="43.7894" lon="4.25418">
        <ele>83.585</ele>
        <time>2009-12-13T09:59:02Z</time>
      </trkpt>
      <trkpt lat="43.78918" lon="4.25427">
        <ele>83.346</ele>
        <time>2009-12-13T09:59:07Z</time>
      </trkpt>
      <trkpt lat="43.78911" lon="4.25442">
        <ele>83.3</ele>
        <time>2009-12-13T09:59:10Z</time>
      </trkpt>
      <trkpt lat="43.78906" lon="4.25458">
        <ele>82.63</ele>
        <time>2009-12-13T09:59:13Z</time>
      </trkpt>
      <trkpt lat="43.78882" lon="4.25492">
        <ele>81.981</ele>
        <time>2009-12-13T09:59:21Z</time>
      </trkpt>
      <trkpt lat="43.78852" lon="4.25504">
        <ele>81.14</ele>
        <time>2009-12-13T09:59:28Z</time>
      </trkpt>
      <trkpt lat="43.78838" lon="4.25508">
        <ele>80.679</ele>
        <time>2009-12-13T09:59:31Z</time>
      </trkpt>
      <trkpt lat="43.78792" lon="4.25509">
        <ele>78.729</ele>
        <time>2009-12-13T09:59:41Z</time>
      </trkpt>
      <trkpt lat="43.78775" lon="4.25531">
        <ele>78.311</ele>
        <time>2009-12-13T09:59:46Z</time>
      </trkpt>
      <trkpt lat="43.78763" lon="4.25549">
        <ele>78.806</ele>
        <time>2009-12-13T09:59:50Z</time>
      </trkpt>
      <trkpt lat="43.78753" lon="4.2555">
        <ele>78.527</ele>
        <time>2009-12-13T09:59:53Z</time>
      </trkpt>
      <trkpt lat="43.78736" lon="4.25538">
        <ele>77.108</ele>
        <time>2009-12-13T09:59:57Z</time>
      </trkpt>
      <trkpt lat="43.78719" lon="4.25533">
        <ele>76.744</ele>
        <time>2009-12-13T10:00:01Z</time>
      </trkpt>
      <trkpt lat="43.78698" lon="4.25536">
        <ele>76.377</ele>
        <time>2009-12-13T10:00:12Z</time>
      </trkpt>
      <trkpt lat="43.78665" lon="4.25548">
        <ele>75.313</ele>
        <time>2009-12-13T10:00:39Z</time>
      </trkpt>
      <trkpt lat="43.78645" lon="4.2555">
        <ele>74.129</ele>
        <time>2009-12-13T10:00:43Z</time>
      </trkpt>
      <trkpt lat="43.78636" lon="4.25552">
        <ele>74.231</ele>
        <time>2009-12-13T10:00:45Z</time>
      </trkpt>
      <trkpt lat="43.78611" lon="4.25565">
        <ele>73.175</ele>
        <time>2009-12-13T10:00:52Z</time>
      </trkpt>
      <trkpt lat="43.78591" lon="4.25589">
        <ele>73.13</ele>
        <time>2009-12-13T10:00:59Z</time>
      </trkpt>
      <trkpt lat="43.78572" lon="4.25596">
        <ele>71.271</ele>
        <time>2009-12-13T10:01:05Z</time>
      </trkpt>
      <trkpt lat="43.78554" lon="4.2561">
        <ele>70.785</ele>
        <time>2009-12-13T10:01:11Z</time>
      </trkpt>
      <trkpt lat="43.78528" lon="4.25616">
        <ele>70.159</ele>
        <time>2009-12-13T10:01:16Z</time>
      </trkpt>
      <trkpt lat="43.78495" lon="4.25627">
        <ele>69.153</ele>
        <time>2009-12-13T10:01:25Z</time>
      </trkpt>
      <trkpt lat="43.78472" lon="4.25617">
        <ele>69.704</ele>
        <time>2009-12-13T10:01:31Z</time>
      </trkpt>
      <trkpt lat="43.78447" lon="4.25624">
        <ele>69.098</ele>
        <time>2009-12-13T10:01:37Z</time>
      </trkpt>
      <trkpt lat="43.78446" lon="4.25605">
        <ele>68.881</ele>
        <time>2009-12-13T10:01:43Z</time>
      </trkpt>
      <trkpt lat="43.78466" lon="4.25526">
        <ele>69.925</ele>
        <time>2009-12-13T10:01:59Z</time>
      </trkpt>
      <trkpt lat="43.7848" lon="4.25466">
        <ele>71.341</ele>
        <time>2009-12-13T10:02:12Z</time>
      </trkpt>
      <trkpt lat="43.78487" lon="4.25406">
        <ele>72.27</ele>
        <time>2009-12-13T10:02:25Z</time>
      </trkpt>
      <trkpt lat="43.78476" lon="4.25355">
        <ele>75.073</ele>
        <time>2009-12-13T10:02:38Z</time>
      </trkpt>
      <trkpt lat="43.78454" lon="4.25312">
        <ele>77.225</ele>
        <time>2009-12-13T10:02:53Z</time>
      </trkpt>
      <trkpt lat="43.78448" lon="4.25264">
        <ele>80.472</ele>
        <time>2009-12-13T10:03:09Z</time>
      </trkpt>
      <trkpt lat="43.78453" lon="4.25214">
        <ele>80.164</ele>
        <time>2009-12-13T10:03:24Z</time>
      </trkpt>
      <trkpt lat="43.78447" lon="4.25194">
        <ele>78.739</ele>
        <time>2009-12-13T10:03:29Z</time>
      </trkpt>
      <trkpt lat="43.78417" lon="4.25178">
        <ele>77.45</ele>
        <time>2009-12-13T10:03:37Z</time>
      </trkpt>
      <trkpt lat="43.78405" lon="4.25181">
        <ele>77.311</ele>
        <time>2009-12-13T10:03:40Z</time>
      </trkpt>
      <trkpt lat="43.78378" lon="4.25178">
        <ele>76.46</ele>
        <time>2009-12-13T10:03:47Z</time>
      </trkpt>
      <trkpt lat="43.78352" lon="4.25182">
        <ele>76.641</ele>
        <time>2009-12-13T10:03:56Z</time>
      </trkpt>
      <trkpt lat="43.78348" lon="4.25169">
        <ele>77.343</ele>
        <time>2009-12-13T10:04:03Z</time>
      </trkpt>
      <trkpt lat="43.78325" lon="4.25137">
        <ele>79.784</ele>
        <time>2009-12-13T10:04:40Z</time>
      </trkpt>
      <trkpt lat="43.78309" lon="4.25126">
        <ele>80.641</ele>
        <time>2009-12-13T10:04:52Z</time>
      </trkpt>
      <trkpt lat="43.78298" lon="4.25113">
        <ele>81.483</ele>
        <time>2009-12-13T10:05:05Z</time>
      </trkpt>
      <trkpt lat="43.78286" lon="4.25096">
        <ele>82.757</ele>
        <time>2009-12-13T10:05:55Z</time>
      </trkpt>
      <trkpt lat="43.78273" lon="4.2508">
        <ele>84.693</ele>
        <time>2009-12-13T10:06:04Z</time>
      </trkpt>
      <trkpt lat="43.78247" lon="4.25056">
        <ele>86.918</ele>
        <time>2009-12-13T10:06:16Z</time>
      </trkpt>
      <trkpt lat="43.78227" lon="4.25028">
        <ele>88.215</ele>
        <time>2009-12-13T10:06:29Z</time>
      </trkpt>
      <trkpt lat="43.78214" lon="4.25008">
        <ele>89.201</ele>
        <time>2009-12-13T10:06:37Z</time>
      </trkpt>
      <trkpt lat="43.78191" lon="4.25006">
        <ele>88.583</ele>
        <time>2009-12-13T10:06:44Z</time>
      </trkpt>
      <trkpt lat="43.78161" lon="4.2498">
        <ele>87.943</ele>
        <time>2009-12-13T10:06:55Z</time>
      </trkpt>
      <trkpt lat="43.78135" lon="4.24967">
        <ele>87.851</ele>
        <time>2009-12-13T10:07:03Z</time>
      </trkpt>
      <trkpt lat="43.7812" lon="4.24993">
        <ele>86.277</ele>
        <time>2009-12-13T10:07:21Z</time>
      </trkpt>
      <trkpt lat="43.78108" lon="4.25005">
        <ele>85.917</ele>
        <time>2009-12-13T10:07:29Z</time>
      </trkpt>
      <trkpt lat="43.78092" lon="4.25009">
        <ele>85.097</ele>
        <time>2009-12-13T10:07:36Z</time>
      </trkpt>
      <trkpt lat="43.78071" lon="4.25027">
        <ele>84.098</ele>
        <time>2009-12-13T10:07:45Z</time>
      </trkpt>
      <trkpt lat="43.78068" lon="4.25043">
        <ele>83.654</ele>
        <time>2009-12-13T10:07:52Z</time>
      </trkpt>
      <trkpt lat="43.78057" lon="4.25045">
        <ele>83.307</ele>
        <time>2009-12-13T10:07:58Z</time>
      </trkpt>
      <trkpt lat="43.78043" lon="4.25062">
        <ele>82.659</ele>
        <time>2009-12-13T10:08:05Z</time>
      </trkpt>
      <trkpt lat="43.78016" lon="4.25089">
        <ele>82.001</ele>
        <time>2009-12-13T10:08:18Z</time>
      </trkpt>
      <trkpt lat="43.77999" lon="4.25088">
        <ele>80.911</ele>
        <time>2009-12-13T10:08:24Z</time>
      </trkpt>
      <trkpt lat="43.77961" lon="4.25099">
        <ele>79.595</ele>
        <time>2009-12-13T10:08:34Z</time>
      </trkpt>
      <trkpt lat="43.77938" lon="4.25117">
        <ele>78.804</ele>
        <time>2009-12-13T10:08:44Z</time>
      </trkpt>
      <trkpt lat="43.77921" lon="4.25122">
        <ele>78.378</ele>
        <time>2009-12-13T10:08:50Z</time>
      </trkpt>
      <trkpt lat="43.77903" lon="4.25126">
        <ele>78.203</ele>
        <time>2009-12-13T10:08:56Z</time>
      </trkpt>
      <trkpt lat="43.77886" lon="4.25124">
        <ele>77.473</ele>
        <time>2009-12-13T10:09:02Z</time>
      </trkpt>
      <trkpt lat="43.77863" lon="4.25135">
        <ele>76.684</ele>
        <time>2009-12-13T10:09:11Z</time>
      </trkpt>
      <trkpt lat="43.77837" lon="4.25146">
        <ele>76.563</ele>
        <time>2009-12-13T10:09:20Z</time>
      </trkpt>
      <trkpt lat="43.77829" lon="4.25156">
        <ele>76.558</ele>
        <time>2009-12-13T10:09:37Z</time>
      </trkpt>
      <trkpt lat="43.77822" lon="4.25165">
        <ele>76.048</ele>
        <time>2009-12-13T10:09:45Z</time>
      </trkpt>
      <trkpt lat="43.77806" lon="4.25167">
        <ele>75.406</ele>
        <time>2009-12-13T10:09:51Z</time>
      </trkpt>
      <trkpt lat="43.77791" lon="4.2517">
        <ele>74.962</ele>
        <time>2009-12-13T10:10:01Z</time>
      </trkpt>
      <trkpt lat="43.77778" lon="4.25172">
        <ele>74.623</ele>
        <time>2009-12-13T10:10:07Z</time>
      </trkpt>
      <trkpt lat="43.77764" lon="4.25185">
        <ele>74.049</ele>
        <time>2009-12-13T10:10:13Z</time>
      </trkpt>
      <trkpt lat="43.77743" lon="4.25195">
        <ele>73.271</ele>
        <time>2009-12-13T10:10:21Z</time>
      </trkpt>
      <trkpt lat="43.77709" lon="4.25221">
        <ele>72.297</ele>
        <time>2009-12-13T10:10:33Z</time>
      </trkpt>
      <trkpt lat="43.7769" lon="4.25232">
        <ele>71.68</ele>
        <time>2009-12-13T10:10:39Z</time>
      </trkpt>
      <trkpt lat="43.77671" lon="4.2524">
        <ele>70.49</ele>
        <time>2009-12-13T10:10:47Z</time>
      </trkpt>
      <trkpt lat="43.77654" lon="4.25254">
        <ele>70.403</ele>
        <time>2009-12-13T10:10:54Z</time>
      </trkpt>
      <trkpt lat="43.77643" lon="4.2526">
        <ele>70.482</ele>
        <time>2009-12-13T10:10:58Z</time>
      </trkpt>
      <trkpt lat="43.7763" lon="4.25267">
        <ele>69.523</ele>
        <time>2009-12-13T10:11:04Z</time>
      </trkpt>
      <trkpt lat="43.77616" lon="4.25273">
        <ele>69.268</ele>
        <time>2009-12-13T10:11:08Z</time>
      </trkpt>
      <trkpt lat="43.776" lon="4.25276">
        <ele>69.071</ele>
        <time>2009-12-13T10:11:15Z</time>
      </trkpt>
      <trkpt lat="43.77588" lon="4.25273">
        <ele>68.406</ele>
        <time>2009-12-13T10:11:20Z</time>
      </trkpt>
      <trkpt lat="43.77556" lon="4.25285">
        <ele>67.738</ele>
        <time>2009-12-13T10:11:30Z</time>
      </trkpt>
      <trkpt lat="43.77535" lon="4.25284">
        <ele>67.276</ele>
        <time>2009-12-13T10:11:35Z</time>
      </trkpt>
      <trkpt lat="43.77498" lon="4.25274">
        <ele>65.998</ele>
        <time>2009-12-13T10:11:45Z</time>
      </trkpt>
      <trkpt lat="43.77491" lon="4.25268">
        <ele>66.189</ele>
        <time>2009-12-13T10:11:51Z</time>
      </trkpt>
      <trkpt lat="43.77459" lon="4.25238">
        <ele>64.882</ele>
        <time>2009-12-13T10:12:05Z</time>
      </trkpt>
      <trkpt lat="43.77445" lon="4.25223">
        <ele>64.595</ele>
        <time>2009-12-13T10:12:09Z</time>
      </trkpt>
      <trkpt lat="43.77434" lon="4.25215">
        <ele>64.266</ele>
        <time>2009-12-13T10:12:12Z</time>
      </trkpt>
      <trkpt lat="43.77421" lon="4.25211">
        <ele>63.537</ele>
        <time>2009-12-13T10:12:15Z</time>
      </trkpt>
      <trkpt lat="43.77393" lon="4.25203">
        <ele>62.274</ele>
        <time>2009-12-13T10:12:21Z</time>
      </trkpt>
      <trkpt lat="43.77377" lon="4.25199">
        <ele>61.921</ele>
        <time>2009-12-13T10:12:24Z</time>
      </trkpt>
      <trkpt lat="43.77348" lon="4.25194">
        <ele>60.935</ele>
        <time>2009-12-13T10:12:30Z</time>
      </trkpt>
      <trkpt lat="43.77334" lon="4.25188">
        <ele>60.746</ele>
        <time>2009-12-13T10:12:33Z</time>
      </trkpt>
      <trkpt lat="43.77312" lon="4.252">
        <ele>60.8</ele>
        <time>2009-12-13T10:12:40Z</time>
      </trkpt>
      <trkpt lat="43.77304" lon="4.25208">
        <ele>62.737</ele>
        <time>2009-12-13T10:12:45Z</time>
      </trkpt>
      <trkpt lat="43.77281" lon="4.25209">
        <ele>63.286</ele>
        <time>2009-12-13T10:12:55Z</time>
      </trkpt>
      <trkpt lat="43.77271" lon="4.25203">
        <ele>62.508</ele>
        <time>2009-12-13T10:12:59Z</time>
      </trkpt>
      <trkpt lat="43.7726" lon="4.25208">
        <ele>63.066</ele>
        <time>2009-12-13T10:13:03Z</time>
      </trkpt>
      <trkpt lat="43.77245" lon="4.25206">
        <ele>62.101</ele>
        <time>2009-12-13T10:13:07Z</time>
      </trkpt>
      <trkpt lat="43.77229" lon="4.25201">
        <ele>61.623</ele>
        <time>2009-12-13T10:13:11Z</time>
      </trkpt>
      <trkpt lat="43.77216" lon="4.25199">
        <ele>61.5</ele>
        <time>2009-12-13T10:13:14Z</time>
      </trkpt>
      <trkpt lat="43.77205" lon="4.25209">
        <ele>62.173</ele>
        <time>2009-12-13T10:13:18Z</time>
      </trkpt>
      <trkpt lat="43.77186" lon="4.25227">
        <ele>63.772</ele>
        <time>2009-12-13T10:13:28Z</time>
      </trkpt>
      <trkpt lat="43.77161" lon="4.25238">
        <ele>64.285</ele>
        <time>2009-12-13T10:13:40Z</time>
      </trkpt>
      <trkpt lat="43.77139" lon="4.25279">
        <ele>67.741</ele>
        <time>2009-12-13T10:13:59Z</time>
      </trkpt>
      <trkpt lat="43.77124" lon="4.25299">
        <ele>68.615</ele>
        <time>2009-12-13T10:14:11Z</time>
      </trkpt>
      <trkpt lat="43.77113" lon="4.25322">
        <ele>69.836</ele>
        <time>2009-12-13T10:14:21Z</time>
      </trkpt>
      <trkpt lat="43.77114" lon="4.25349">
        <ele>72.358</ele>
        <time>2009-12-13T10:14:33Z</time>
      </trkpt>
      <trkpt lat="43.77114" lon="4.2538">
        <ele>75.82</ele>
        <time>2009-12-13T10:14:45Z</time>
      </trkpt>
      <trkpt lat="43.77104" lon="4.25407">
        <ele>77.139</ele>
        <time>2009-12-13T10:14:55Z</time>
      </trkpt>
      <trkpt lat="43.77105" lon="4.25445">
        <ele>79.511</ele>
        <time>2009-12-13T10:15:07Z</time>
      </trkpt>
      <trkpt lat="43.77103" lon="4.25466">
        <ele>79.438</ele>
        <time>2009-12-13T10:15:14Z</time>
      </trkpt>
      <trkpt lat="43.77114" lon="4.25472">
        <ele>80.822</ele>
        <time>2009-12-13T10:15:21Z</time>
      </trkpt>
      <trkpt lat="43.7715" lon="4.25478">
        <ele>83</ele>
        <time>2009-12-13T10:15:38Z</time>
      </trkpt>
      <trkpt lat="43.77179" lon="4.25465">
        <ele>84.77</ele>
        <time>2009-12-13T10:15:53Z</time>
      </trkpt>
      <trkpt lat="43.7721" lon="4.25456">
        <ele>87.603</ele>
        <time>2009-12-13T10:16:08Z</time>
      </trkpt>
      <trkpt lat="43.77233" lon="4.25439">
        <ele>89.382</ele>
        <time>2009-12-13T10:16:19Z</time>
      </trkpt>
      <trkpt lat="43.77247" lon="4.25432">
        <ele>89.622</ele>
        <time>2009-12-13T10:16:25Z</time>
      </trkpt>
      <trkpt lat="43.77265" lon="4.25434">
        <ele>90.932</ele>
        <time>2009-12-13T10:16:32Z</time>
      </trkpt>
      <trkpt lat="43.77302" lon="4.25446">
        <ele>93.121</ele>
        <time>2009-12-13T10:16:48Z</time>
      </trkpt>
      <trkpt lat="43.7733" lon="4.25447">
        <ele>93.823</ele>
        <time>2009-12-13T10:16:59Z</time>
      </trkpt>
      <trkpt lat="43.77342" lon="4.25435">
        <ele>91.65</ele>
        <time>2009-12-13T10:17:04Z</time>
      </trkpt>
      <trkpt lat="43.77364" lon="4.25441">
        <ele>93.1</ele>
        <time>2009-12-13T10:17:11Z</time>
      </trkpt>
      <trkpt lat="43.77399" lon="4.25457">
        <ele>94.447</ele>
        <time>2009-12-13T10:17:24Z</time>
      </trkpt>
      <trkpt lat="43.77427" lon="4.25456">
        <ele>93.861</ele>
        <time>2009-12-13T10:17:35Z</time>
      </trkpt>
      <trkpt lat="43.77447" lon="4.2548">
        <ele>97.443</ele>
        <time>2009-12-13T10:17:48Z</time>
      </trkpt>
      <trkpt lat="43.77454" lon="4.25491">
        <ele>98.378</ele>
        <time>2009-12-13T10:17:53Z</time>
      </trkpt>
      <trkpt lat="43.77457" lon="4.25504">
        <ele>100.156</ele>
        <time>2009-12-13T10:18:02Z</time>
      </trkpt>
      <trkpt lat="43.77461" lon="4.25529">
        <ele>102.33</ele>
        <time>2009-12-13T10:18:15Z</time>
      </trkpt>
      <trkpt lat="43.7746" lon="4.25545">
        <ele>102.4</ele>
        <time>2009-12-13T10:18:23Z</time>
      </trkpt>
      <trkpt lat="43.77465" lon="4.25576">
        <ele>102.886</ele>
        <time>2009-12-13T10:18:35Z</time>
      </trkpt>
      <trkpt lat="43.77474" lon="4.25586">
        <ele>101.749</ele>
        <time>2009-12-13T10:18:40Z</time>
      </trkpt>
      <trkpt lat="43.77518" lon="4.25592">
        <ele>99.677</ele>
        <time>2009-12-13T10:18:55Z</time>
      </trkpt>
      <trkpt lat="43.77528" lon="4.25587">
        <ele>99.571</ele>
        <time>2009-12-13T10:18:58Z</time>
      </trkpt>
      <trkpt lat="43.77542" lon="4.25559">
        <ele>96.887</ele>
        <time>2009-12-13T10:19:03Z</time>
      </trkpt>
      <trkpt lat="43.77549" lon="4.25528">
        <ele>94.549</ele>
        <time>2009-12-13T10:19:07Z</time>
      </trkpt>
      <trkpt lat="43.77572" lon="4.25499">
        <ele>92.415</ele>
        <time>2009-12-13T10:19:12Z</time>
      </trkpt>
      <trkpt lat="43.77607" lon="4.25484">
        <ele>89.194</ele>
        <time>2009-12-13T10:19:17Z</time>
      </trkpt>
      <trkpt lat="43.77683" lon="4.25444">
        <ele>88.96</ele>
        <time>2009-12-13T10:19:29Z</time>
      </trkpt>
      <trkpt lat="43.77776" lon="4.25414">
        <ele>90.007</ele>
        <time>2009-12-13T10:19:46Z</time>
      </trkpt>
      <trkpt lat="43.77839" lon="4.25368">
        <ele>91.265</ele>
        <time>2009-12-13T10:20:02Z</time>
      </trkpt>
      <trkpt lat="43.7785" lon="4.25361">
        <ele>91.612</ele>
        <time>2009-12-13T10:20:05Z</time>
      </trkpt>
      <trkpt lat="43.77881" lon="4.25342">
        <ele>92.4</ele>
        <time>2009-12-13T10:20:14Z</time>
      </trkpt>
      <trkpt lat="43.77886" lon="4.25355">
        <ele>92.651</ele>
        <time>2009-12-13T10:20:18Z</time>
      </trkpt>
      <trkpt lat="43.77877" lon="4.25386">
        <ele>91.362</ele>
        <time>2009-12-13T10:20:24Z</time>
      </trkpt>
      <trkpt lat="43.77869" lon="4.2541">
        <ele>90.103</ele>
        <time>2009-12-13T10:20:28Z</time>
      </trkpt>
      <trkpt lat="43.77863" lon="4.25422">
        <ele>89.575</ele>
        <time>2009-12-13T10:20:30Z</time>
      </trkpt>
      <trkpt lat="43.77859" lon="4.25435">
        <ele>88.386</ele>
        <time>2009-12-13T10:20:32Z</time>
      </trkpt>
      <trkpt lat="43.77852" lon="4.25455">
        <ele>87.118</ele>
        <time>2009-12-13T10:20:35Z</time>
      </trkpt>
      <trkpt lat="43.77831" lon="4.25504">
        <ele>82.949</ele>
        <time>2009-12-13T10:20:43Z</time>
      </trkpt>
      <trkpt lat="43.77825" lon="4.25515">
        <ele>81.978</ele>
        <time>2009-12-13T10:20:45Z</time>
      </trkpt>
      <trkpt lat="43.77785" lon="4.2555">
        <ele>78.769</ele>
        <time>2009-12-13T10:20:54Z</time>
      </trkpt>
      <trkpt lat="43.77767" lon="4.25566">
        <ele>77.919</ele>
        <time>2009-12-13T10:20:58Z</time>
      </trkpt>
      <trkpt lat="43.77726" lon="4.25603">
        <ele>75.485</ele>
        <time>2009-12-13T10:21:10Z</time>
      </trkpt>
      <trkpt lat="43.77705" lon="4.25625">
        <ele>74.292</ele>
        <time>2009-12-13T10:21:16Z</time>
      </trkpt>
      <trkpt lat="43.7769" lon="4.25649">
        <ele>73.12</ele>
        <time>2009-12-13T10:21:21Z</time>
      </trkpt>
      <trkpt lat="43.77677" lon="4.25672">
        <ele>72.688</ele>
        <time>2009-12-13T10:21:26Z</time>
      </trkpt>
      <trkpt lat="43.77669" lon="4.25689">
        <ele>72.294</ele>
        <time>2009-12-13T10:21:30Z</time>
      </trkpt>
      <trkpt lat="43.77652" lon="4.25718">
        <ele>70.97</ele>
        <time>2009-12-13T10:21:36Z</time>
      </trkpt>
      <trkpt lat="43.77626" lon="4.25765">
        <ele>69.242</ele>
        <time>2009-12-13T10:21:45Z</time>
      </trkpt>
      <trkpt lat="43.77613" lon="4.25795">
        <ele>68.483</ele>
        <time>2009-12-13T10:21:51Z</time>
      </trkpt>
      <trkpt lat="43.77608" lon="4.25848">
        <ele>67.634</ele>
        <time>2009-12-13T10:22:00Z</time>
      </trkpt>
      <trkpt lat="43.77607" lon="4.25896">
        <ele>66.169</ele>
        <time>2009-12-13T10:22:10Z</time>
      </trkpt>
      <trkpt lat="43.77604" lon="4.25969">
        <ele>64.206</ele>
        <time>2009-12-13T10:22:23Z</time>
      </trkpt>
      <trkpt lat="43.77597" lon="4.25993">
        <ele>64.048</ele>
        <time>2009-12-13T10:22:27Z</time>
      </trkpt>
      <trkpt lat="43.77588" lon="4.26014">
        <ele>63.319</ele>
        <time>2009-12-13T10:22:31Z</time>
      </trkpt>
      <trkpt lat="43.77555" lon="4.2607">
        <ele>61.367</ele>
        <time>2009-12-13T10:22:42Z</time>
      </trkpt>
      <trkpt lat="43.77549" lon="4.26081">
        <ele>60.518</ele>
        <time>2009-12-13T10:22:44Z</time>
      </trkpt>
      <trkpt lat="43.7754" lon="4.26112">
        <ele>59.484</ele>
        <time>2009-12-13T10:22:49Z</time>
      </trkpt>
      <trkpt lat="43.77515" lon="4.26192">
        <ele>57.936</ele>
        <time>2009-12-13T10:23:02Z</time>
      </trkpt>
      <trkpt lat="43.7751" lon="4.26201">
        <ele>57.671</ele>
        <time>2009-12-13T10:23:04Z</time>
      </trkpt>
      <trkpt lat="43.77496" lon="4.26229">
        <ele>56.495</ele>
        <time>2009-12-13T10:23:09Z</time>
      </trkpt>
      <trkpt lat="43.77481" lon="4.26245">
        <ele>56.145</ele>
        <time>2009-12-13T10:23:13Z</time>
      </trkpt>
      <trkpt lat="43.77471" lon="4.26248">
        <ele>55.715</ele>
        <time>2009-12-13T10:23:15Z</time>
      </trkpt>
      <trkpt lat="43.77378" lon="4.26259">
        <ele>53.346</ele>
        <time>2009-12-13T10:23:32Z</time>
      </trkpt>
      <trkpt lat="43.77279" lon="4.26292">
        <ele>50.976</ele>
        <time>2009-12-13T10:23:50Z</time>
      </trkpt>
      <trkpt lat="43.77257" lon="4.26295">
        <ele>51.299</ele>
        <time>2009-12-13T10:23:54Z</time>
      </trkpt>
      <trkpt lat="43.77183" lon="4.26281">
        <ele>51.678</ele>
        <time>2009-12-13T10:24:08Z</time>
      </trkpt>
      <trkpt lat="43.77095" lon="4.26298">
        <ele>51.136</ele>
        <time>2009-12-13T10:24:24Z</time>
      </trkpt>
      <trkpt lat="43.77057" lon="4.26305">
        <ele>50.666</ele>
        <time>2009-12-13T10:24:31Z</time>
      </trkpt>
      <trkpt lat="43.76968" lon="4.26277">
        <ele>51.821</ele>
        <time>2009-12-13T10:24:49Z</time>
      </trkpt>
      <trkpt lat="43.76941" lon="4.26253">
        <ele>51.566</ele>
        <time>2009-12-13T10:24:57Z</time>
      </trkpt>
      <trkpt lat="43.769" lon="4.26234">
        <ele>53.792</ele>
        <time>2009-12-13T10:25:09Z</time>
      </trkpt>
      <trkpt lat="43.76855" lon="4.26227">
        <ele>57.211</ele>
        <time>2009-12-13T10:25:26Z</time>
      </trkpt>
      <trkpt lat="43.76818" lon="4.26233">
        <ele>60.85</ele>
        <time>2009-12-13T10:25:44Z</time>
      </trkpt>
      <trkpt lat="43.76773" lon="4.26237">
        <ele>61.552</ele>
        <time>2009-12-13T10:26:02Z</time>
      </trkpt>
      <trkpt lat="43.7672" lon="4.26235">
        <ele>60.478</ele>
        <time>2009-12-13T10:26:19Z</time>
      </trkpt>
      <trkpt lat="43.76705" lon="4.26236">
        <ele>59.681</ele>
        <time>2009-12-13T10:26:23Z</time>
      </trkpt>
      <trkpt lat="43.76624" lon="4.26258">
        <ele>58.137</ele>
        <time>2009-12-13T10:26:38Z</time>
      </trkpt>
      <trkpt lat="43.76548" lon="4.26248">
        <ele>58.186</ele>
        <time>2009-12-13T10:26:52Z</time>
      </trkpt>
      <trkpt lat="43.76474" lon="4.26261">
        <ele>60.249</ele>
        <time>2009-12-13T10:27:08Z</time>
      </trkpt>
      <trkpt lat="43.76428" lon="4.26272">
        <ele>63.795</ele>
        <time>2009-12-13T10:27:23Z</time>
      </trkpt>
      <trkpt lat="43.76392" lon="4.26236">
        <ele>63.733</ele>
        <time>2009-12-13T10:27:37Z</time>
      </trkpt>
      <trkpt lat="43.76376" lon="4.26224">
        <ele>62.188</ele>
        <time>2009-12-13T10:27:41Z</time>
      </trkpt>
      <trkpt lat="43.76291" lon="4.26217">
        <ele>59.3</ele>
        <time>2009-12-13T10:27:57Z</time>
      </trkpt>
      <trkpt lat="43.76186" lon="4.26232">
        <ele>56.12</ele>
        <time>2009-12-13T10:28:14Z</time>
      </trkpt>
      <trkpt lat="43.76173" lon="4.26236">
        <ele>55.985</ele>
        <time>2009-12-13T10:28:16Z</time>
      </trkpt>
      <trkpt lat="43.76155" lon="4.26247">
        <ele>54.446</ele>
        <time>2009-12-13T10:28:19Z</time>
      </trkpt>
      <trkpt lat="43.76144" lon="4.26258">
        <ele>54.286</ele>
        <time>2009-12-13T10:28:21Z</time>
      </trkpt>
      <trkpt lat="43.76127" lon="4.26268">
        <ele>52.64</ele>
        <time>2009-12-13T10:28:24Z</time>
      </trkpt>
      <trkpt lat="43.76093" lon="4.26279">
        <ele>50.946</ele>
        <time>2009-12-13T10:28:29Z</time>
      </trkpt>
      <trkpt lat="43.76035" lon="4.26307">
        <ele>47.248</ele>
        <time>2009-12-13T10:28:38Z</time>
      </trkpt>
      <trkpt lat="43.75992" lon="4.26301">
        <ele>45.689</ele>
        <time>2009-12-13T10:28:45Z</time>
      </trkpt>
      <trkpt lat="43.75975" lon="4.26285">
        <ele>44.4</ele>
        <time>2009-12-13T10:28:48Z</time>
      </trkpt>
      <trkpt lat="43.75896" lon="4.26202">
        <ele>39.593</ele>
        <time>2009-12-13T10:29:01Z</time>
      </trkpt>
      <trkpt lat="43.75871" lon="4.26195">
        <ele>40.753</ele>
        <time>2009-12-13T10:29:09Z</time>
      </trkpt>
      <trkpt lat="43.75861" lon="4.26213">
        <ele>39.864</ele>
        <time>2009-12-13T10:29:13Z</time>
      </trkpt>
      <trkpt lat="43.75802" lon="4.263">
        <ele>37.551</ele>
        <time>2009-12-13T10:29:29Z</time>
      </trkpt>
      <trkpt lat="43.75795" lon="4.26314">
        <ele>36.345</ele>
        <time>2009-12-13T10:29:31Z</time>
      </trkpt>
      <trkpt lat="43.75794" lon="4.26371">
        <ele>34.311</ele>
        <time>2009-12-13T10:29:37Z</time>
      </trkpt>
      <trkpt lat="43.75805" lon="4.2641">
        <ele>30.836</ele>
        <time>2009-12-13T10:29:41Z</time>
      </trkpt>
      <trkpt lat="43.75826" lon="4.2648">
        <ele>29.129</ele>
        <time>2009-12-13T10:29:48Z</time>
      </trkpt>
      <trkpt lat="43.75846" lon="4.26538">
        <ele>29.055</ele>
        <time>2009-12-13T10:29:55Z</time>
      </trkpt>
      <trkpt lat="43.7585" lon="4.26562">
        <ele>29.068</ele>
        <time>2009-12-13T10:29:58Z</time>
      </trkpt>
      <trkpt lat="43.75849" lon="4.26593">
        <ele>29.772</ele>
        <time>2009-12-13T10:30:02Z</time>
      </trkpt>
      <trkpt lat="43.75818" lon="4.26676">
        <ele>30.606</ele>
        <time>2009-12-13T10:30:14Z</time>
      </trkpt>
      <trkpt lat="43.75818" lon="4.26717">
        <ele>31.447</ele>
        <time>2009-12-13T10:30:19Z</time>
      </trkpt>
      <trkpt lat="43.75825" lon="4.26748">
        <ele>33.62</ele>
        <time>2009-12-13T10:30:23Z</time>
      </trkpt>
      <trkpt lat="43.7583" lon="4.26775">
        <ele>35.727</ele>
        <time>2009-12-13T10:30:29Z</time>
      </trkpt>
      <trkpt lat="43.7582" lon="4.26791">
        <ele>36.694</ele>
        <time>2009-12-13T10:30:35Z</time>
      </trkpt>
      <trkpt lat="43.75819" lon="4.26804">
        <ele>35.277</ele>
        <time>2009-12-13T10:30:38Z</time>
      </trkpt>
      <trkpt lat="43.75833" lon="4.2683">
        <ele>33.835</ele>
        <time>2009-12-13T10:30:43Z</time>
      </trkpt>
      <trkpt lat="43.75858" lon="4.26885">
        <ele>32.171</ele>
        <time>2009-12-13T10:30:52Z</time>
      </trkpt>
      <trkpt lat="43.75849" lon="4.26905">
        <ele>31.218</ele>
        <time>2009-12-13T10:30:56Z</time>
      </trkpt>
      <trkpt lat="43.7584" lon="4.2691">
        <ele>30.94</ele>
        <time>2009-12-13T10:30:58Z</time>
      </trkpt>
      <trkpt lat="43.75817" lon="4.26887">
        <ele>30.112</ele>
        <time>2009-12-13T10:31:04Z</time>
      </trkpt>
      <trkpt lat="43.75809" lon="4.26868">
        <ele>29.627</ele>
        <time>2009-12-13T10:31:07Z</time>
      </trkpt>
      <trkpt lat="43.75806" lon="4.26855">
        <ele>29.558</ele>
        <time>2009-12-13T10:31:09Z</time>
      </trkpt>
      <trkpt lat="43.75805" lon="4.26824">
        <ele>29.98</ele>
        <time>2009-12-13T10:31:14Z</time>
      </trkpt>
      <trkpt lat="43.75799" lon="4.26795">
        <ele>29.722</ele>
        <time>2009-12-13T10:31:19Z</time>
      </trkpt>
      <trkpt lat="43.75791" lon="4.26785">
        <ele>29.389</ele>
        <time>2009-12-13T10:31:21Z</time>
      </trkpt>
      <trkpt lat="43.75751" lon="4.267">
        <ele>27.292</ele>
        <time>2009-12-13T10:31:33Z</time>
      </trkpt>
      <trkpt lat="43.7572" lon="4.2661">
        <ele>27.944</ele>
        <time>2009-12-13T10:31:48Z</time>
      </trkpt>
      <trkpt lat="43.75692" lon="4.26609">
        <ele>26.761</ele>
        <time>2009-12-13T10:31:57Z</time>
      </trkpt>
      <trkpt lat="43.75642" lon="4.26653">
        <ele>25.46</ele>
        <time>2009-12-13T10:32:11Z</time>
      </trkpt>
    </trkseg>
  </trk>
</gpx>